<?xml version="1.0" encoding="UTF-8" standalone="no" ?>
<gpx xmlns="http://www.topografix.com/GPX/1/1" xmlns:xsi="http://www.w3.org/2001/XMLSchema-instance" xsi:schemaLocation="http://www.topografix.com/GPX/1/1 http://www.topografix.com/GPX/1/1/gpx.xsd" version="1.1" creator="VisuGPX - https://www.visugpx.com">
  <metadata>
    <name>la caborne suspendue</name>
    <desc><![CDATA[Fait le 1er août, avec Jujutrail]]></desc>
  </metadata>
  <trk>
    <name><![CDATA[2013-08-01T16:31:58Z]]></name>
    <trkseg>
      <trkpt lat="45.83822" lon="4.82512">
        <ele>193.9</ele>
        <time>2013-08-01T16:31:58Z</time>
      </trkpt>
      <trkpt lat="45.83824" lon="4.82507">
        <ele>197</ele>
        <time>2013-08-01T16:32:01Z</time>
      </trkpt>
      <trkpt lat="45.83825" lon="4.82505">
        <ele>197.2</ele>
        <time>2013-08-01T16:32:02Z</time>
      </trkpt>
      <trkpt lat="45.83831" lon="4.82499">
        <ele>197.2</ele>
        <time>2013-08-01T16:32:06Z</time>
      </trkpt>
      <trkpt lat="45.83831" lon="4.82495">
        <ele>197.2</ele>
        <time>2013-08-01T16:32:07Z</time>
      </trkpt>
      <trkpt lat="45.83831" lon="4.8249">
        <ele>197.4</ele>
        <time>2013-08-01T16:32:08Z</time>
      </trkpt>
      <trkpt lat="45.83828" lon="4.82481">
        <ele>197.4</ele>
        <time>2013-08-01T16:32:10Z</time>
      </trkpt>
      <trkpt lat="45.83827" lon="4.82475">
        <ele>197.2</ele>
        <time>2013-08-01T16:32:11Z</time>
      </trkpt>
      <trkpt lat="45.83826" lon="4.82464">
        <ele>197.2</ele>
        <time>2013-08-01T16:32:14Z</time>
      </trkpt>
      <trkpt lat="45.83825" lon="4.8246">
        <ele>197.2</ele>
        <time>2013-08-01T16:32:15Z</time>
      </trkpt>
      <trkpt lat="45.83829" lon="4.82446">
        <ele>197.2</ele>
        <time>2013-08-01T16:32:20Z</time>
      </trkpt>
      <trkpt lat="45.83833" lon="4.82438">
        <ele>197.4</ele>
        <time>2013-08-01T16:32:23Z</time>
      </trkpt>
      <trkpt lat="45.83834" lon="4.82432">
        <ele>197.4</ele>
        <time>2013-08-01T16:32:25Z</time>
      </trkpt>
      <trkpt lat="45.83835" lon="4.82416">
        <ele>197.6</ele>
        <time>2013-08-01T16:32:30Z</time>
      </trkpt>
      <trkpt lat="45.83835" lon="4.82411">
        <ele>197.6</ele>
        <time>2013-08-01T16:32:32Z</time>
      </trkpt>
      <trkpt lat="45.83836" lon="4.82398">
        <ele>198</ele>
        <time>2013-08-01T16:32:36Z</time>
      </trkpt>
      <trkpt lat="45.83839" lon="4.82384">
        <ele>198.6</ele>
        <time>2013-08-01T16:32:41Z</time>
      </trkpt>
      <trkpt lat="45.83838" lon="4.82381">
        <ele>198.8</ele>
        <time>2013-08-01T16:32:42Z</time>
      </trkpt>
      <trkpt lat="45.8384" lon="4.82365">
        <ele>199.4</ele>
        <time>2013-08-01T16:32:47Z</time>
      </trkpt>
      <trkpt lat="45.83841" lon="4.82359">
        <ele>199.8</ele>
        <time>2013-08-01T16:32:49Z</time>
      </trkpt>
      <trkpt lat="45.83845" lon="4.82347">
        <ele>200.2</ele>
        <time>2013-08-01T16:32:53Z</time>
      </trkpt>
      <trkpt lat="45.83849" lon="4.8234">
        <ele>200.8</ele>
        <time>2013-08-01T16:32:56Z</time>
      </trkpt>
      <trkpt lat="45.83851" lon="4.82337">
        <ele>201</ele>
        <time>2013-08-01T16:32:57Z</time>
      </trkpt>
      <trkpt lat="45.83851" lon="4.82334">
        <ele>201.2</ele>
        <time>2013-08-01T16:32:58Z</time>
      </trkpt>
      <trkpt lat="45.83853" lon="4.82325">
        <ele>202</ele>
        <time>2013-08-01T16:33:01Z</time>
      </trkpt>
      <trkpt lat="45.83853" lon="4.82321">
        <ele>202.2</ele>
        <time>2013-08-01T16:33:02Z</time>
      </trkpt>
      <trkpt lat="45.83854" lon="4.82312">
        <ele>203</ele>
        <time>2013-08-01T16:33:05Z</time>
      </trkpt>
      <trkpt lat="45.83854" lon="4.82306">
        <ele>203.4</ele>
        <time>2013-08-01T16:33:07Z</time>
      </trkpt>
      <trkpt lat="45.83854" lon="4.82291">
        <ele>204.6</ele>
        <time>2013-08-01T16:33:12Z</time>
      </trkpt>
      <trkpt lat="45.83853" lon="4.82284">
        <ele>205</ele>
        <time>2013-08-01T16:33:14Z</time>
      </trkpt>
      <trkpt lat="45.83853" lon="4.82282">
        <ele>205.2</ele>
        <time>2013-08-01T16:33:15Z</time>
      </trkpt>
      <trkpt lat="45.83854" lon="4.82281">
        <ele>205.4</ele>
        <time>2013-08-01T16:33:16Z</time>
      </trkpt>
      <trkpt lat="45.83856" lon="4.82265">
        <ele>206.4</ele>
        <time>2013-08-01T16:33:22Z</time>
      </trkpt>
      <trkpt lat="45.83857" lon="4.82259">
        <ele>206.6</ele>
        <time>2013-08-01T16:33:24Z</time>
      </trkpt>
      <trkpt lat="45.83857" lon="4.82249">
        <ele>207</ele>
        <time>2013-08-01T16:33:27Z</time>
      </trkpt>
      <trkpt lat="45.83856" lon="4.82234">
        <ele>207.6</ele>
        <time>2013-08-01T16:33:32Z</time>
      </trkpt>
      <trkpt lat="45.83857" lon="4.82231">
        <ele>207.8</ele>
        <time>2013-08-01T16:33:33Z</time>
      </trkpt>
      <trkpt lat="45.83857" lon="4.82228">
        <ele>208</ele>
        <time>2013-08-01T16:33:34Z</time>
      </trkpt>
      <trkpt lat="45.83857" lon="4.82222">
        <ele>208.2</ele>
        <time>2013-08-01T16:33:36Z</time>
      </trkpt>
      <trkpt lat="45.8386" lon="4.82208">
        <ele>208.8</ele>
        <time>2013-08-01T16:33:41Z</time>
      </trkpt>
      <trkpt lat="45.83861" lon="4.82206">
        <ele>208.8</ele>
        <time>2013-08-01T16:33:42Z</time>
      </trkpt>
      <trkpt lat="45.83863" lon="4.82191">
        <ele>209.6</ele>
        <time>2013-08-01T16:33:47Z</time>
      </trkpt>
      <trkpt lat="45.83864" lon="4.82179">
        <ele>210</ele>
        <time>2013-08-01T16:33:51Z</time>
      </trkpt>
      <trkpt lat="45.83866" lon="4.82174">
        <ele>210.4</ele>
        <time>2013-08-01T16:33:53Z</time>
      </trkpt>
      <trkpt lat="45.8387" lon="4.82158">
        <ele>211.4</ele>
        <time>2013-08-01T16:33:59Z</time>
      </trkpt>
      <trkpt lat="45.8387" lon="4.82155">
        <ele>211.6</ele>
        <time>2013-08-01T16:34:00Z</time>
      </trkpt>
      <trkpt lat="45.83871" lon="4.82141">
        <ele>212.2</ele>
        <time>2013-08-01T16:34:05Z</time>
      </trkpt>
      <trkpt lat="45.83871" lon="4.82127">
        <ele>213</ele>
        <time>2013-08-01T16:34:09Z</time>
      </trkpt>
      <trkpt lat="45.83871" lon="4.82124">
        <ele>213.2</ele>
        <time>2013-08-01T16:34:10Z</time>
      </trkpt>
      <trkpt lat="45.83872" lon="4.82112">
        <ele>213.8</ele>
        <time>2013-08-01T16:34:14Z</time>
      </trkpt>
      <trkpt lat="45.83873" lon="4.82099">
        <ele>214.4</ele>
        <time>2013-08-01T16:34:18Z</time>
      </trkpt>
      <trkpt lat="45.83873" lon="4.82096">
        <ele>214.6</ele>
        <time>2013-08-01T16:34:19Z</time>
      </trkpt>
      <trkpt lat="45.83872" lon="4.82075">
        <ele>215.8</ele>
        <time>2013-08-01T16:34:26Z</time>
      </trkpt>
      <trkpt lat="45.83872" lon="4.82072">
        <ele>216</ele>
        <time>2013-08-01T16:34:27Z</time>
      </trkpt>
      <trkpt lat="45.83871" lon="4.82056">
        <ele>216.8</ele>
        <time>2013-08-01T16:34:32Z</time>
      </trkpt>
      <trkpt lat="45.83872" lon="4.82044">
        <ele>217.6</ele>
        <time>2013-08-01T16:34:36Z</time>
      </trkpt>
      <trkpt lat="45.83872" lon="4.82029">
        <ele>218.6</ele>
        <time>2013-08-01T16:34:41Z</time>
      </trkpt>
      <trkpt lat="45.83874" lon="4.82018">
        <ele>219.4</ele>
        <time>2013-08-01T16:34:45Z</time>
      </trkpt>
      <trkpt lat="45.83875" lon="4.82013">
        <ele>219.8</ele>
        <time>2013-08-01T16:34:47Z</time>
      </trkpt>
      <trkpt lat="45.83873" lon="4.81997">
        <ele>221.2</ele>
        <time>2013-08-01T16:34:53Z</time>
      </trkpt>
      <trkpt lat="45.83872" lon="4.81994">
        <ele>221.4</ele>
        <time>2013-08-01T16:34:54Z</time>
      </trkpt>
      <trkpt lat="45.8387" lon="4.81977">
        <ele>223</ele>
        <time>2013-08-01T16:35:00Z</time>
      </trkpt>
      <trkpt lat="45.83869" lon="4.81966">
        <ele>224.2</ele>
        <time>2013-08-01T16:35:04Z</time>
      </trkpt>
      <trkpt lat="45.83868" lon="4.81963">
        <ele>224.4</ele>
        <time>2013-08-01T16:35:05Z</time>
      </trkpt>
      <trkpt lat="45.83868" lon="4.81961">
        <ele>224.8</ele>
        <time>2013-08-01T16:35:06Z</time>
      </trkpt>
      <trkpt lat="45.83867" lon="4.81947">
        <ele>225.8</ele>
        <time>2013-08-01T16:35:11Z</time>
      </trkpt>
      <trkpt lat="45.83867" lon="4.81945">
        <ele>226.2</ele>
        <time>2013-08-01T16:35:12Z</time>
      </trkpt>
      <trkpt lat="45.83867" lon="4.81939">
        <ele>226.6</ele>
        <time>2013-08-01T16:35:14Z</time>
      </trkpt>
      <trkpt lat="45.83866" lon="4.81927">
        <ele>227.6</ele>
        <time>2013-08-01T16:35:18Z</time>
      </trkpt>
      <trkpt lat="45.83865" lon="4.81911">
        <ele>228.8</ele>
        <time>2013-08-01T16:35:24Z</time>
      </trkpt>
      <trkpt lat="45.83867" lon="4.81898">
        <ele>229.8</ele>
        <time>2013-08-01T16:35:29Z</time>
      </trkpt>
      <trkpt lat="45.83867" lon="4.81892">
        <ele>230.4</ele>
        <time>2013-08-01T16:35:32Z</time>
      </trkpt>
      <trkpt lat="45.83867" lon="4.81888">
        <ele>230.8</ele>
        <time>2013-08-01T16:35:34Z</time>
      </trkpt>
      <trkpt lat="45.83866" lon="4.81885">
        <ele>231</ele>
        <time>2013-08-01T16:35:35Z</time>
      </trkpt>
      <trkpt lat="45.83866" lon="4.81873">
        <ele>231.8</ele>
        <time>2013-08-01T16:35:39Z</time>
      </trkpt>
      <trkpt lat="45.83866" lon="4.8187">
        <ele>232</ele>
        <time>2013-08-01T16:35:40Z</time>
      </trkpt>
      <trkpt lat="45.83864" lon="4.81865">
        <ele>232.2</ele>
        <time>2013-08-01T16:35:42Z</time>
      </trkpt>
      <trkpt lat="45.83863" lon="4.8186">
        <ele>232.6</ele>
        <time>2013-08-01T16:35:44Z</time>
      </trkpt>
      <trkpt lat="45.83862" lon="4.81859">
        <ele>232.6</ele>
        <time>2013-08-01T16:35:45Z</time>
      </trkpt>
      <trkpt lat="45.83858" lon="4.81849">
        <ele>233.6</ele>
        <time>2013-08-01T16:35:50Z</time>
      </trkpt>
      <trkpt lat="45.83856" lon="4.81838">
        <ele>234.4</ele>
        <time>2013-08-01T16:35:56Z</time>
      </trkpt>
      <trkpt lat="45.83856" lon="4.81837">
        <ele>234.6</ele>
        <time>2013-08-01T16:35:57Z</time>
      </trkpt>
      <trkpt lat="45.83854" lon="4.81834">
        <ele>235</ele>
        <time>2013-08-01T16:35:58Z</time>
      </trkpt>
      <trkpt lat="45.83851" lon="4.81828">
        <ele>235.6</ele>
        <time>2013-08-01T16:36:01Z</time>
      </trkpt>
      <trkpt lat="45.83846" lon="4.81814">
        <ele>236.4</ele>
        <time>2013-08-01T16:36:06Z</time>
      </trkpt>
      <trkpt lat="45.83843" lon="4.81799">
        <ele>238</ele>
        <time>2013-08-01T16:36:12Z</time>
      </trkpt>
      <trkpt lat="45.83842" lon="4.81792">
        <ele>239.2</ele>
        <time>2013-08-01T16:36:15Z</time>
      </trkpt>
      <trkpt lat="45.83841" lon="4.81787">
        <ele>240</ele>
        <time>2013-08-01T16:36:17Z</time>
      </trkpt>
      <trkpt lat="45.83838" lon="4.81773">
        <ele>242.8</ele>
        <time>2013-08-01T16:36:23Z</time>
      </trkpt>
      <trkpt lat="45.83833" lon="4.81764">
        <ele>245.8</ele>
        <time>2013-08-01T16:36:28Z</time>
      </trkpt>
      <trkpt lat="45.8383" lon="4.81756">
        <ele>247.6</ele>
        <time>2013-08-01T16:36:31Z</time>
      </trkpt>
      <trkpt lat="45.83828" lon="4.81748">
        <ele>249</ele>
        <time>2013-08-01T16:36:34Z</time>
      </trkpt>
      <trkpt lat="45.83827" lon="4.81739">
        <ele>251</ele>
        <time>2013-08-01T16:36:38Z</time>
      </trkpt>
      <trkpt lat="45.83827" lon="4.81738">
        <ele>251.8</ele>
        <time>2013-08-01T16:36:39Z</time>
      </trkpt>
      <trkpt lat="45.83826" lon="4.81729">
        <ele>253.4</ele>
        <time>2013-08-01T16:36:43Z</time>
      </trkpt>
      <trkpt lat="45.83824" lon="4.81717">
        <ele>256.6</ele>
        <time>2013-08-01T16:36:49Z</time>
      </trkpt>
      <trkpt lat="45.83822" lon="4.81715">
        <ele>257</ele>
        <time>2013-08-01T16:36:50Z</time>
      </trkpt>
      <trkpt lat="45.83821" lon="4.81707">
        <ele>258.8</ele>
        <time>2013-08-01T16:36:53Z</time>
      </trkpt>
      <trkpt lat="45.83818" lon="4.81696">
        <ele>261.2</ele>
        <time>2013-08-01T16:36:58Z</time>
      </trkpt>
      <trkpt lat="45.83815" lon="4.8169">
        <ele>262.2</ele>
        <time>2013-08-01T16:37:00Z</time>
      </trkpt>
      <trkpt lat="45.83812" lon="4.81684">
        <ele>263.8</ele>
        <time>2013-08-01T16:37:03Z</time>
      </trkpt>
      <trkpt lat="45.83808" lon="4.81671">
        <ele>267</ele>
        <time>2013-08-01T16:37:10Z</time>
      </trkpt>
      <trkpt lat="45.83806" lon="4.81666">
        <ele>268</ele>
        <time>2013-08-01T16:37:12Z</time>
      </trkpt>
      <trkpt lat="45.83805" lon="4.8166">
        <ele>270.6</ele>
        <time>2013-08-01T16:37:16Z</time>
      </trkpt>
      <trkpt lat="45.83802" lon="4.81649">
        <ele>273.6</ele>
        <time>2013-08-01T16:37:21Z</time>
      </trkpt>
      <trkpt lat="45.83801" lon="4.81648">
        <ele>274</ele>
        <time>2013-08-01T16:37:22Z</time>
      </trkpt>
      <trkpt lat="45.83799" lon="4.81641">
        <ele>275.2</ele>
        <time>2013-08-01T16:37:26Z</time>
      </trkpt>
      <trkpt lat="45.83798" lon="4.81639">
        <ele>275.4</ele>
        <time>2013-08-01T16:37:27Z</time>
      </trkpt>
      <trkpt lat="45.83796" lon="4.81632">
        <ele>276.2</ele>
        <time>2013-08-01T16:37:30Z</time>
      </trkpt>
      <trkpt lat="45.83793" lon="4.8162">
        <ele>277.6</ele>
        <time>2013-08-01T16:37:36Z</time>
      </trkpt>
      <trkpt lat="45.83793" lon="4.81618">
        <ele>278</ele>
        <time>2013-08-01T16:37:37Z</time>
      </trkpt>
      <trkpt lat="45.83793" lon="4.81615">
        <ele>278.2</ele>
        <time>2013-08-01T16:37:38Z</time>
      </trkpt>
      <trkpt lat="45.83792" lon="4.81608">
        <ele>278.8</ele>
        <time>2013-08-01T16:37:41Z</time>
      </trkpt>
      <trkpt lat="45.83792" lon="4.81595">
        <ele>279.2</ele>
        <time>2013-08-01T16:37:47Z</time>
      </trkpt>
      <trkpt lat="45.83791" lon="4.81588">
        <ele>279.8</ele>
        <time>2013-08-01T16:37:50Z</time>
      </trkpt>
      <trkpt lat="45.83791" lon="4.81582">
        <ele>279.4</ele>
        <time>2013-08-01T16:37:53Z</time>
      </trkpt>
      <trkpt lat="45.8379" lon="4.81579">
        <ele>279.6</ele>
        <time>2013-08-01T16:37:54Z</time>
      </trkpt>
      <trkpt lat="45.83789" lon="4.81573">
        <ele>279.8</ele>
        <time>2013-08-01T16:37:58Z</time>
      </trkpt>
      <trkpt lat="45.83788" lon="4.81572">
        <ele>280</ele>
        <time>2013-08-01T16:37:59Z</time>
      </trkpt>
      <trkpt lat="45.83784" lon="4.81563">
        <ele>280.8</ele>
        <time>2013-08-01T16:38:04Z</time>
      </trkpt>
      <trkpt lat="45.83783" lon="4.81558">
        <ele>281.2</ele>
        <time>2013-08-01T16:38:06Z</time>
      </trkpt>
      <trkpt lat="45.83782" lon="4.81547">
        <ele>282.6</ele>
        <time>2013-08-01T16:38:12Z</time>
      </trkpt>
      <trkpt lat="45.83782" lon="4.81543">
        <ele>283.2</ele>
        <time>2013-08-01T16:38:14Z</time>
      </trkpt>
      <trkpt lat="45.83782" lon="4.81541">
        <ele>284</ele>
        <time>2013-08-01T16:38:17Z</time>
      </trkpt>
      <trkpt lat="45.83784" lon="4.81539">
        <ele>284.8</ele>
        <time>2013-08-01T16:38:19Z</time>
      </trkpt>
      <trkpt lat="45.83783" lon="4.81537">
        <ele>285.2</ele>
        <time>2013-08-01T16:38:20Z</time>
      </trkpt>
      <trkpt lat="45.83783" lon="4.81534">
        <ele>285.2</ele>
        <time>2013-08-01T16:38:22Z</time>
      </trkpt>
      <trkpt lat="45.83783" lon="4.81528">
        <ele>285.4</ele>
        <time>2013-08-01T16:38:24Z</time>
      </trkpt>
      <trkpt lat="45.83783" lon="4.81525">
        <ele>285.4</ele>
        <time>2013-08-01T16:38:26Z</time>
      </trkpt>
      <trkpt lat="45.83784" lon="4.81512">
        <ele>286.8</ele>
        <time>2013-08-01T16:38:35Z</time>
      </trkpt>
      <trkpt lat="45.83784" lon="4.8151">
        <ele>286.6</ele>
        <time>2013-08-01T16:38:36Z</time>
      </trkpt>
      <trkpt lat="45.83784" lon="4.81507">
        <ele>286.4</ele>
        <time>2013-08-01T16:38:37Z</time>
      </trkpt>
      <trkpt lat="45.83784" lon="4.81499">
        <ele>287.6</ele>
        <time>2013-08-01T16:38:42Z</time>
      </trkpt>
      <trkpt lat="45.83783" lon="4.8149">
        <ele>289.4</ele>
        <time>2013-08-01T16:38:47Z</time>
      </trkpt>
      <trkpt lat="45.83782" lon="4.81487">
        <ele>290.2</ele>
        <time>2013-08-01T16:38:49Z</time>
      </trkpt>
      <trkpt lat="45.83783" lon="4.81486">
        <ele>291.6</ele>
        <time>2013-08-01T16:38:51Z</time>
      </trkpt>
      <trkpt lat="45.83783" lon="4.81482">
        <ele>292</ele>
        <time>2013-08-01T16:38:53Z</time>
      </trkpt>
      <trkpt lat="45.83781" lon="4.81479">
        <ele>292.2</ele>
        <time>2013-08-01T16:38:54Z</time>
      </trkpt>
      <trkpt lat="45.83777" lon="4.8147">
        <ele>293.8</ele>
        <time>2013-08-01T16:38:59Z</time>
      </trkpt>
      <trkpt lat="45.83778" lon="4.81469">
        <ele>294.6</ele>
        <time>2013-08-01T16:39:01Z</time>
      </trkpt>
      <trkpt lat="45.83776" lon="4.81461">
        <ele>295.6</ele>
        <time>2013-08-01T16:39:05Z</time>
      </trkpt>
      <trkpt lat="45.83775" lon="4.81457">
        <ele>296.2</ele>
        <time>2013-08-01T16:39:07Z</time>
      </trkpt>
      <trkpt lat="45.83776" lon="4.81456">
        <ele>296.8</ele>
        <time>2013-08-01T16:39:08Z</time>
      </trkpt>
      <trkpt lat="45.83775" lon="4.81449">
        <ele>298.2</ele>
        <time>2013-08-01T16:39:12Z</time>
      </trkpt>
      <trkpt lat="45.83775" lon="4.81445">
        <ele>299.6</ele>
        <time>2013-08-01T16:39:15Z</time>
      </trkpt>
      <trkpt lat="45.83775" lon="4.81442">
        <ele>300</ele>
        <time>2013-08-01T16:39:17Z</time>
      </trkpt>
      <trkpt lat="45.83777" lon="4.81429">
        <ele>299</ele>
        <time>2013-08-01T16:39:23Z</time>
      </trkpt>
      <trkpt lat="45.83776" lon="4.81427">
        <ele>299</ele>
        <time>2013-08-01T16:39:24Z</time>
      </trkpt>
      <trkpt lat="45.83779" lon="4.81421">
        <ele>299.2</ele>
        <time>2013-08-01T16:39:29Z</time>
      </trkpt>
      <trkpt lat="45.83778" lon="4.81419">
        <ele>299</ele>
        <time>2013-08-01T16:39:30Z</time>
      </trkpt>
      <trkpt lat="45.83778" lon="4.81418">
        <ele>299</ele>
        <time>2013-08-01T16:39:31Z</time>
      </trkpt>
      <trkpt lat="45.83776" lon="4.8141">
        <ele>299</ele>
        <time>2013-08-01T16:39:35Z</time>
      </trkpt>
      <trkpt lat="45.83776" lon="4.81407">
        <ele>299</ele>
        <time>2013-08-01T16:39:37Z</time>
      </trkpt>
      <trkpt lat="45.83775" lon="4.81406">
        <ele>299</ele>
        <time>2013-08-01T16:39:38Z</time>
      </trkpt>
      <trkpt lat="45.83776" lon="4.81404">
        <ele>298.8</ele>
        <time>2013-08-01T16:39:39Z</time>
      </trkpt>
      <trkpt lat="45.83777" lon="4.81403">
        <ele>299</ele>
        <time>2013-08-01T16:39:40Z</time>
      </trkpt>
      <trkpt lat="45.83778" lon="4.814">
        <ele>299.2</ele>
        <time>2013-08-01T16:39:42Z</time>
      </trkpt>
      <trkpt lat="45.83777" lon="4.81394">
        <ele>299</ele>
        <time>2013-08-01T16:39:45Z</time>
      </trkpt>
      <trkpt lat="45.83776" lon="4.81392">
        <ele>299</ele>
        <time>2013-08-01T16:39:46Z</time>
      </trkpt>
      <trkpt lat="45.83775" lon="4.81388">
        <ele>300</ele>
        <time>2013-08-01T16:39:50Z</time>
      </trkpt>
      <trkpt lat="45.83775" lon="4.81379">
        <ele>302.2</ele>
        <time>2013-08-01T16:39:56Z</time>
      </trkpt>
      <trkpt lat="45.83774" lon="4.81377">
        <ele>302.4</ele>
        <time>2013-08-01T16:39:57Z</time>
      </trkpt>
      <trkpt lat="45.83775" lon="4.81371">
        <ele>303.8</ele>
        <time>2013-08-01T16:40:01Z</time>
      </trkpt>
      <trkpt lat="45.83774" lon="4.81366">
        <ele>304.6</ele>
        <time>2013-08-01T16:40:04Z</time>
      </trkpt>
      <trkpt lat="45.83772" lon="4.81356">
        <ele>305.4</ele>
        <time>2013-08-01T16:40:11Z</time>
      </trkpt>
      <trkpt lat="45.8377" lon="4.81352">
        <ele>305.6</ele>
        <time>2013-08-01T16:40:13Z</time>
      </trkpt>
      <trkpt lat="45.83769" lon="4.81349">
        <ele>305.6</ele>
        <time>2013-08-01T16:40:15Z</time>
      </trkpt>
      <trkpt lat="45.83768" lon="4.81346">
        <ele>305.8</ele>
        <time>2013-08-01T16:40:17Z</time>
      </trkpt>
      <trkpt lat="45.83768" lon="4.81341">
        <ele>306.6</ele>
        <time>2013-08-01T16:40:21Z</time>
      </trkpt>
      <trkpt lat="45.83767" lon="4.81339">
        <ele>307.2</ele>
        <time>2013-08-01T16:40:23Z</time>
      </trkpt>
      <trkpt lat="45.83766" lon="4.81337">
        <ele>308</ele>
        <time>2013-08-01T16:40:26Z</time>
      </trkpt>
      <trkpt lat="45.83763" lon="4.81334">
        <ele>309.2</ele>
        <time>2013-08-01T16:40:30Z</time>
      </trkpt>
      <trkpt lat="45.83764" lon="4.81332">
        <ele>309.8</ele>
        <time>2013-08-01T16:40:31Z</time>
      </trkpt>
      <trkpt lat="45.83765" lon="4.81326">
        <ele>311.2</ele>
        <time>2013-08-01T16:40:35Z</time>
      </trkpt>
      <trkpt lat="45.83766" lon="4.81324">
        <ele>311.2</ele>
        <time>2013-08-01T16:40:36Z</time>
      </trkpt>
      <trkpt lat="45.83766" lon="4.81316">
        <ele>312.4</ele>
        <time>2013-08-01T16:40:41Z</time>
      </trkpt>
      <trkpt lat="45.83764" lon="4.81308">
        <ele>312.4</ele>
        <time>2013-08-01T16:40:44Z</time>
      </trkpt>
      <trkpt lat="45.83764" lon="4.81307">
        <ele>312.2</ele>
        <time>2013-08-01T16:40:45Z</time>
      </trkpt>
      <trkpt lat="45.83763" lon="4.81301">
        <ele>312</ele>
        <time>2013-08-01T16:40:48Z</time>
      </trkpt>
      <trkpt lat="45.8376" lon="4.81293">
        <ele>312.6</ele>
        <time>2013-08-01T16:40:54Z</time>
      </trkpt>
      <trkpt lat="45.8376" lon="4.81292">
        <ele>313</ele>
        <time>2013-08-01T16:40:55Z</time>
      </trkpt>
      <trkpt lat="45.8376" lon="4.81284">
        <ele>314.2</ele>
        <time>2013-08-01T16:41:00Z</time>
      </trkpt>
      <trkpt lat="45.8376" lon="4.81281">
        <ele>315</ele>
        <time>2013-08-01T16:41:02Z</time>
      </trkpt>
      <trkpt lat="45.8376" lon="4.81279">
        <ele>315.4</ele>
        <time>2013-08-01T16:41:03Z</time>
      </trkpt>
      <trkpt lat="45.83765" lon="4.81275">
        <ele>317.6</ele>
        <time>2013-08-01T16:41:06Z</time>
      </trkpt>
      <trkpt lat="45.83765" lon="4.8127">
        <ele>317.8</ele>
        <time>2013-08-01T16:41:09Z</time>
      </trkpt>
      <trkpt lat="45.83764" lon="4.81264">
        <ele>319</ele>
        <time>2013-08-01T16:41:12Z</time>
      </trkpt>
      <trkpt lat="45.83766" lon="4.81261">
        <ele>320.8</ele>
        <time>2013-08-01T16:41:15Z</time>
      </trkpt>
      <trkpt lat="45.83768" lon="4.81259">
        <ele>321.6</ele>
        <time>2013-08-01T16:41:17Z</time>
      </trkpt>
      <trkpt lat="45.83769" lon="4.81257">
        <ele>322.6</ele>
        <time>2013-08-01T16:41:19Z</time>
      </trkpt>
      <trkpt lat="45.83769" lon="4.81254">
        <ele>322.2</ele>
        <time>2013-08-01T16:41:20Z</time>
      </trkpt>
      <trkpt lat="45.83767" lon="4.81248">
        <ele>322.2</ele>
        <time>2013-08-01T16:41:23Z</time>
      </trkpt>
      <trkpt lat="45.83767" lon="4.81246">
        <ele>322.4</ele>
        <time>2013-08-01T16:41:25Z</time>
      </trkpt>
      <trkpt lat="45.83767" lon="4.81241">
        <ele>322.4</ele>
        <time>2013-08-01T16:41:28Z</time>
      </trkpt>
      <trkpt lat="45.83768" lon="4.8124">
        <ele>322.8</ele>
        <time>2013-08-01T16:41:29Z</time>
      </trkpt>
      <trkpt lat="45.83771" lon="4.81236">
        <ele>324.2</ele>
        <time>2013-08-01T16:41:34Z</time>
      </trkpt>
      <trkpt lat="45.83771" lon="4.81234">
        <ele>324.8</ele>
        <time>2013-08-01T16:41:35Z</time>
      </trkpt>
      <trkpt lat="45.83774" lon="4.81224">
        <ele>326.8</ele>
        <time>2013-08-01T16:41:41Z</time>
      </trkpt>
      <trkpt lat="45.83775" lon="4.81222">
        <ele>327</ele>
        <time>2013-08-01T16:41:42Z</time>
      </trkpt>
      <trkpt lat="45.83774" lon="4.81217">
        <ele>328</ele>
        <time>2013-08-01T16:41:45Z</time>
      </trkpt>
      <trkpt lat="45.83774" lon="4.81215">
        <ele>328.6</ele>
        <time>2013-08-01T16:41:46Z</time>
      </trkpt>
      <trkpt lat="45.83775" lon="4.81207">
        <ele>330.4</ele>
        <time>2013-08-01T16:41:51Z</time>
      </trkpt>
      <trkpt lat="45.83774" lon="4.812">
        <ele>329.8</ele>
        <time>2013-08-01T16:41:54Z</time>
      </trkpt>
      <trkpt lat="45.83775" lon="4.81193">
        <ele>330.2</ele>
        <time>2013-08-01T16:41:59Z</time>
      </trkpt>
      <trkpt lat="45.83775" lon="4.8119">
        <ele>330.2</ele>
        <time>2013-08-01T16:42:00Z</time>
      </trkpt>
      <trkpt lat="45.83777" lon="4.81186">
        <ele>330.8</ele>
        <time>2013-08-01T16:42:03Z</time>
      </trkpt>
      <trkpt lat="45.83777" lon="4.81184">
        <ele>331</ele>
        <time>2013-08-01T16:42:05Z</time>
      </trkpt>
      <trkpt lat="45.83776" lon="4.8118">
        <ele>332</ele>
        <time>2013-08-01T16:42:08Z</time>
      </trkpt>
      <trkpt lat="45.83776" lon="4.81174">
        <ele>332.2</ele>
        <time>2013-08-01T16:42:11Z</time>
      </trkpt>
      <trkpt lat="45.83779" lon="4.81172">
        <ele>333</ele>
        <time>2013-08-01T16:42:13Z</time>
      </trkpt>
      <trkpt lat="45.8378" lon="4.81172">
        <ele>333.4</ele>
        <time>2013-08-01T16:42:14Z</time>
      </trkpt>
      <trkpt lat="45.83779" lon="4.81169">
        <ele>334</ele>
        <time>2013-08-01T16:42:16Z</time>
      </trkpt>
      <trkpt lat="45.83779" lon="4.81166">
        <ele>334.4</ele>
        <time>2013-08-01T16:42:19Z</time>
      </trkpt>
      <trkpt lat="45.83779" lon="4.81156">
        <ele>336.2</ele>
        <time>2013-08-01T16:42:25Z</time>
      </trkpt>
      <trkpt lat="45.83778" lon="4.81154">
        <ele>336.8</ele>
        <time>2013-08-01T16:42:27Z</time>
      </trkpt>
      <trkpt lat="45.83775" lon="4.81149">
        <ele>337.2</ele>
        <time>2013-08-01T16:42:30Z</time>
      </trkpt>
      <trkpt lat="45.83772" lon="4.81146">
        <ele>337.6</ele>
        <time>2013-08-01T16:42:32Z</time>
      </trkpt>
      <trkpt lat="45.83772" lon="4.81139">
        <ele>337.4</ele>
        <time>2013-08-01T16:42:36Z</time>
      </trkpt>
      <trkpt lat="45.83772" lon="4.81137">
        <ele>337.4</ele>
        <time>2013-08-01T16:42:37Z</time>
      </trkpt>
      <trkpt lat="45.83769" lon="4.81132">
        <ele>337.2</ele>
        <time>2013-08-01T16:42:41Z</time>
      </trkpt>
      <trkpt lat="45.83766" lon="4.81118">
        <ele>337</ele>
        <time>2013-08-01T16:42:48Z</time>
      </trkpt>
      <trkpt lat="45.83766" lon="4.81112">
        <ele>336.8</ele>
        <time>2013-08-01T16:42:53Z</time>
      </trkpt>
      <trkpt lat="45.83766" lon="4.8111">
        <ele>336.8</ele>
        <time>2013-08-01T16:42:54Z</time>
      </trkpt>
      <trkpt lat="45.83766" lon="4.81109">
        <ele>336.8</ele>
        <time>2013-08-01T16:42:55Z</time>
      </trkpt>
      <trkpt lat="45.83767" lon="4.81107">
        <ele>337</ele>
        <time>2013-08-01T16:42:57Z</time>
      </trkpt>
      <trkpt lat="45.83768" lon="4.81106">
        <ele>337.4</ele>
        <time>2013-08-01T16:42:59Z</time>
      </trkpt>
      <trkpt lat="45.83771" lon="4.81103">
        <ele>338</ele>
        <time>2013-08-01T16:43:02Z</time>
      </trkpt>
      <trkpt lat="45.83773" lon="4.81101">
        <ele>338</ele>
        <time>2013-08-01T16:43:04Z</time>
      </trkpt>
      <trkpt lat="45.83774" lon="4.811">
        <ele>338.4</ele>
        <time>2013-08-01T16:43:06Z</time>
      </trkpt>
      <trkpt lat="45.83777" lon="4.81095">
        <ele>339.4</ele>
        <time>2013-08-01T16:43:10Z</time>
      </trkpt>
      <trkpt lat="45.83776" lon="4.81093">
        <ele>339.8</ele>
        <time>2013-08-01T16:43:11Z</time>
      </trkpt>
      <trkpt lat="45.83776" lon="4.81091">
        <ele>341.6</ele>
        <time>2013-08-01T16:43:14Z</time>
      </trkpt>
      <trkpt lat="45.83778" lon="4.81089">
        <ele>343.6</ele>
        <time>2013-08-01T16:43:18Z</time>
      </trkpt>
      <trkpt lat="45.83777" lon="4.81087">
        <ele>344.2</ele>
        <time>2013-08-01T16:43:19Z</time>
      </trkpt>
      <trkpt lat="45.83776" lon="4.81078">
        <ele>347.2</ele>
        <time>2013-08-01T16:43:24Z</time>
      </trkpt>
      <trkpt lat="45.83775" lon="4.81075">
        <ele>348.8</ele>
        <time>2013-08-01T16:43:27Z</time>
      </trkpt>
      <trkpt lat="45.83775" lon="4.81074">
        <ele>349.4</ele>
        <time>2013-08-01T16:43:28Z</time>
      </trkpt>
      <trkpt lat="45.83774" lon="4.81063">
        <ele>354.8</ele>
        <time>2013-08-01T16:43:37Z</time>
      </trkpt>
      <trkpt lat="45.83773" lon="4.8106">
        <ele>356</ele>
        <time>2013-08-01T16:43:39Z</time>
      </trkpt>
      <trkpt lat="45.83772" lon="4.81057">
        <ele>358</ele>
        <time>2013-08-01T16:43:42Z</time>
      </trkpt>
      <trkpt lat="45.8377" lon="4.81055">
        <ele>359</ele>
        <time>2013-08-01T16:43:44Z</time>
      </trkpt>
      <trkpt lat="45.83768" lon="4.81043">
        <ele>359.6</ele>
        <time>2013-08-01T16:43:49Z</time>
      </trkpt>
      <trkpt lat="45.83768" lon="4.81042">
        <ele>359.4</ele>
        <time>2013-08-01T16:43:50Z</time>
      </trkpt>
      <trkpt lat="45.83771" lon="4.8104">
        <ele>359.8</ele>
        <time>2013-08-01T16:43:53Z</time>
      </trkpt>
      <trkpt lat="45.83773" lon="4.81037">
        <ele>359.6</ele>
        <time>2013-08-01T16:43:55Z</time>
      </trkpt>
      <trkpt lat="45.83773" lon="4.81036">
        <ele>359.8</ele>
        <time>2013-08-01T16:43:57Z</time>
      </trkpt>
      <trkpt lat="45.83773" lon="4.8103">
        <ele>360.2</ele>
        <time>2013-08-01T16:44:01Z</time>
      </trkpt>
      <trkpt lat="45.83773" lon="4.81028">
        <ele>360.2</ele>
        <time>2013-08-01T16:44:02Z</time>
      </trkpt>
      <trkpt lat="45.83775" lon="4.81026">
        <ele>360.6</ele>
        <time>2013-08-01T16:44:05Z</time>
      </trkpt>
      <trkpt lat="45.83775" lon="4.81025">
        <ele>360.8</ele>
        <time>2013-08-01T16:44:07Z</time>
      </trkpt>
      <trkpt lat="45.83776" lon="4.81019">
        <ele>362.2</ele>
        <time>2013-08-01T16:44:11Z</time>
      </trkpt>
      <trkpt lat="45.83775" lon="4.81017">
        <ele>362.6</ele>
        <time>2013-08-01T16:44:12Z</time>
      </trkpt>
      <trkpt lat="45.83776" lon="4.81011">
        <ele>362.6</ele>
        <time>2013-08-01T16:44:16Z</time>
      </trkpt>
      <trkpt lat="45.83777" lon="4.8101">
        <ele>362.6</ele>
        <time>2013-08-01T16:44:17Z</time>
      </trkpt>
      <trkpt lat="45.83776" lon="4.81004">
        <ele>363.4</ele>
        <time>2013-08-01T16:44:21Z</time>
      </trkpt>
      <trkpt lat="45.83778" lon="4.81">
        <ele>364.4</ele>
        <time>2013-08-01T16:44:26Z</time>
      </trkpt>
      <trkpt lat="45.83779" lon="4.80998">
        <ele>365</ele>
        <time>2013-08-01T16:44:27Z</time>
      </trkpt>
      <trkpt lat="45.83779" lon="4.80997">
        <ele>365.6</ele>
        <time>2013-08-01T16:44:29Z</time>
      </trkpt>
      <trkpt lat="45.83779" lon="4.80994">
        <ele>366.4</ele>
        <time>2013-08-01T16:44:31Z</time>
      </trkpt>
      <trkpt lat="45.83779" lon="4.8099">
        <ele>367.8</ele>
        <time>2013-08-01T16:44:34Z</time>
      </trkpt>
      <trkpt lat="45.83779" lon="4.80986">
        <ele>369.2</ele>
        <time>2013-08-01T16:44:37Z</time>
      </trkpt>
      <trkpt lat="45.8378" lon="4.80984">
        <ele>370.4</ele>
        <time>2013-08-01T16:44:39Z</time>
      </trkpt>
      <trkpt lat="45.83781" lon="4.80981">
        <ele>372.2</ele>
        <time>2013-08-01T16:44:42Z</time>
      </trkpt>
      <trkpt lat="45.83781" lon="4.8098">
        <ele>372.6</ele>
        <time>2013-08-01T16:44:43Z</time>
      </trkpt>
      <trkpt lat="45.83783" lon="4.80978">
        <ele>374.2</ele>
        <time>2013-08-01T16:44:46Z</time>
      </trkpt>
      <trkpt lat="45.83784" lon="4.80975">
        <ele>375.2</ele>
        <time>2013-08-01T16:44:48Z</time>
      </trkpt>
      <trkpt lat="45.83784" lon="4.80973">
        <ele>376</ele>
        <time>2013-08-01T16:44:50Z</time>
      </trkpt>
      <trkpt lat="45.83788" lon="4.80973">
        <ele>377.8</ele>
        <time>2013-08-01T16:44:54Z</time>
      </trkpt>
      <trkpt lat="45.83791" lon="4.80973">
        <ele>379</ele>
        <time>2013-08-01T16:44:56Z</time>
      </trkpt>
      <trkpt lat="45.83795" lon="4.80972">
        <ele>380.4</ele>
        <time>2013-08-01T16:45:00Z</time>
      </trkpt>
      <trkpt lat="45.83798" lon="4.80969">
        <ele>381.8</ele>
        <time>2013-08-01T16:45:04Z</time>
      </trkpt>
      <trkpt lat="45.83798" lon="4.80969">
        <ele>382.2</ele>
        <time>2013-08-01T16:45:05Z</time>
      </trkpt>
      <trkpt lat="45.83801" lon="4.80967">
        <ele>383.6</ele>
        <time>2013-08-01T16:45:08Z</time>
      </trkpt>
      <trkpt lat="45.83802" lon="4.80965">
        <ele>384.6</ele>
        <time>2013-08-01T16:45:10Z</time>
      </trkpt>
      <trkpt lat="45.83804" lon="4.80962">
        <ele>386.2</ele>
        <time>2013-08-01T16:45:15Z</time>
      </trkpt>
      <trkpt lat="45.83805" lon="4.80961">
        <ele>386.6</ele>
        <time>2013-08-01T16:45:16Z</time>
      </trkpt>
      <trkpt lat="45.83805" lon="4.80957">
        <ele>388</ele>
        <time>2013-08-01T16:45:19Z</time>
      </trkpt>
      <trkpt lat="45.83806" lon="4.80957">
        <ele>388.6</ele>
        <time>2013-08-01T16:45:20Z</time>
      </trkpt>
      <trkpt lat="45.83808" lon="4.80956">
        <ele>389</ele>
        <time>2013-08-01T16:45:22Z</time>
      </trkpt>
      <trkpt lat="45.8381" lon="4.80953">
        <ele>390</ele>
        <time>2013-08-01T16:45:25Z</time>
      </trkpt>
      <trkpt lat="45.83813" lon="4.80947">
        <ele>391.8</ele>
        <time>2013-08-01T16:45:30Z</time>
      </trkpt>
      <trkpt lat="45.83814" lon="4.80947">
        <ele>392</ele>
        <time>2013-08-01T16:45:31Z</time>
      </trkpt>
      <trkpt lat="45.8382" lon="4.80945">
        <ele>392.8</ele>
        <time>2013-08-01T16:45:35Z</time>
      </trkpt>
      <trkpt lat="45.8382" lon="4.80944">
        <ele>393.4</ele>
        <time>2013-08-01T16:45:36Z</time>
      </trkpt>
      <trkpt lat="45.83824" lon="4.80945">
        <ele>393.8</ele>
        <time>2013-08-01T16:45:38Z</time>
      </trkpt>
      <trkpt lat="45.83825" lon="4.80945">
        <ele>394</ele>
        <time>2013-08-01T16:45:39Z</time>
      </trkpt>
      <trkpt lat="45.83826" lon="4.80943">
        <ele>399.2</ele>
        <time>2013-08-01T16:45:53Z</time>
      </trkpt>
      <trkpt lat="45.83832" lon="4.80937">
        <ele>401.4</ele>
        <time>2013-08-01T16:45:59Z</time>
      </trkpt>
      <trkpt lat="45.83833" lon="4.80937">
        <ele>401.8</ele>
        <time>2013-08-01T16:46:00Z</time>
      </trkpt>
      <trkpt lat="45.83835" lon="4.80936">
        <ele>402.4</ele>
        <time>2013-08-01T16:46:02Z</time>
      </trkpt>
      <trkpt lat="45.83836" lon="4.80934">
        <ele>403.2</ele>
        <time>2013-08-01T16:46:04Z</time>
      </trkpt>
      <trkpt lat="45.83839" lon="4.80932">
        <ele>404.8</ele>
        <time>2013-08-01T16:46:08Z</time>
      </trkpt>
      <trkpt lat="45.83839" lon="4.80931">
        <ele>405.2</ele>
        <time>2013-08-01T16:46:09Z</time>
      </trkpt>
      <trkpt lat="45.83844" lon="4.80927">
        <ele>406.6</ele>
        <time>2013-08-01T16:46:15Z</time>
      </trkpt>
      <trkpt lat="45.83849" lon="4.80922">
        <ele>408.2</ele>
        <time>2013-08-01T16:46:21Z</time>
      </trkpt>
      <trkpt lat="45.83849" lon="4.80921">
        <ele>408.4</ele>
        <time>2013-08-01T16:46:22Z</time>
      </trkpt>
      <trkpt lat="45.8385" lon="4.80919">
        <ele>409</ele>
        <time>2013-08-01T16:46:25Z</time>
      </trkpt>
      <trkpt lat="45.8385" lon="4.80917">
        <ele>409.2</ele>
        <time>2013-08-01T16:46:27Z</time>
      </trkpt>
      <trkpt lat="45.83851" lon="4.80917">
        <ele>409.2</ele>
        <time>2013-08-01T16:46:28Z</time>
      </trkpt>
      <trkpt lat="45.83853" lon="4.80921">
        <ele>409.4</ele>
        <time>2013-08-01T16:46:30Z</time>
      </trkpt>
      <trkpt lat="45.83854" lon="4.80924">
        <ele>409.6</ele>
        <time>2013-08-01T16:46:32Z</time>
      </trkpt>
      <trkpt lat="45.83852" lon="4.80934">
        <ele>409.4</ele>
        <time>2013-08-01T16:46:37Z</time>
      </trkpt>
      <trkpt lat="45.83852" lon="4.80936">
        <ele>409.4</ele>
        <time>2013-08-01T16:46:38Z</time>
      </trkpt>
      <trkpt lat="45.83851" lon="4.80946">
        <ele>409.2</ele>
        <time>2013-08-01T16:46:43Z</time>
      </trkpt>
      <trkpt lat="45.83851" lon="4.80949">
        <ele>409.2</ele>
        <time>2013-08-01T16:46:44Z</time>
      </trkpt>
      <trkpt lat="45.83849" lon="4.80955">
        <ele>409</ele>
        <time>2013-08-01T16:46:48Z</time>
      </trkpt>
      <trkpt lat="45.83849" lon="4.80959">
        <ele>408.8</ele>
        <time>2013-08-01T16:46:51Z</time>
      </trkpt>
      <trkpt lat="45.83848" lon="4.80964">
        <ele>408.4</ele>
        <time>2013-08-01T16:46:54Z</time>
      </trkpt>
      <trkpt lat="45.83847" lon="4.80969">
        <ele>408.2</ele>
        <time>2013-08-01T16:46:57Z</time>
      </trkpt>
      <trkpt lat="45.83847" lon="4.80972">
        <ele>408</ele>
        <time>2013-08-01T16:46:59Z</time>
      </trkpt>
      <trkpt lat="45.83846" lon="4.80979">
        <ele>407.4</ele>
        <time>2013-08-01T16:47:03Z</time>
      </trkpt>
      <trkpt lat="45.83847" lon="4.80986">
        <ele>406.8</ele>
        <time>2013-08-01T16:47:07Z</time>
      </trkpt>
      <trkpt lat="45.83848" lon="4.80987">
        <ele>406.8</ele>
        <time>2013-08-01T16:47:08Z</time>
      </trkpt>
      <trkpt lat="45.83849" lon="4.80988">
        <ele>406.4</ele>
        <time>2013-08-01T16:47:09Z</time>
      </trkpt>
      <trkpt lat="45.83852" lon="4.80991">
        <ele>406</ele>
        <time>2013-08-01T16:47:12Z</time>
      </trkpt>
      <trkpt lat="45.83854" lon="4.80993">
        <ele>405.8</ele>
        <time>2013-08-01T16:47:13Z</time>
      </trkpt>
      <trkpt lat="45.83853" lon="4.80995">
        <ele>405</ele>
        <time>2013-08-01T16:47:18Z</time>
      </trkpt>
      <trkpt lat="45.8385" lon="4.80991">
        <ele>403</ele>
        <time>2013-08-01T16:47:56Z</time>
      </trkpt>
      <trkpt lat="45.83848" lon="4.80991">
        <ele>403</ele>
        <time>2013-08-01T16:47:59Z</time>
      </trkpt>
      <trkpt lat="45.83851" lon="4.80993">
        <ele>402.8</ele>
        <time>2013-08-01T16:48:03Z</time>
      </trkpt>
      <trkpt lat="45.83852" lon="4.80995">
        <ele>402.8</ele>
        <time>2013-08-01T16:48:04Z</time>
      </trkpt>
      <trkpt lat="45.83852" lon="4.80997">
        <ele>402.8</ele>
        <time>2013-08-01T16:48:05Z</time>
      </trkpt>
      <trkpt lat="45.83851" lon="4.81">
        <ele>402.6</ele>
        <time>2013-08-01T16:48:08Z</time>
      </trkpt>
      <trkpt lat="45.83851" lon="4.81001">
        <ele>402.6</ele>
        <time>2013-08-01T16:48:09Z</time>
      </trkpt>
      <trkpt lat="45.8385" lon="4.81">
        <ele>402.6</ele>
        <time>2013-08-01T16:48:10Z</time>
      </trkpt>
      <trkpt lat="45.8385" lon="4.80999">
        <ele>402.6</ele>
        <time>2013-08-01T16:48:12Z</time>
      </trkpt>
      <trkpt lat="45.83848" lon="4.80999">
        <ele>402</ele>
        <time>2013-08-01T16:48:18Z</time>
      </trkpt>
      <trkpt lat="45.83849" lon="4.80999">
        <ele>401.2</ele>
        <time>2013-08-01T16:48:32Z</time>
      </trkpt>
      <trkpt lat="45.8385" lon="4.81005">
        <ele>401</ele>
        <time>2013-08-01T16:48:38Z</time>
      </trkpt>
      <trkpt lat="45.8385" lon="4.81007">
        <ele>401</ele>
        <time>2013-08-01T16:48:40Z</time>
      </trkpt>
      <trkpt lat="45.83851" lon="4.8101">
        <ele>401</ele>
        <time>2013-08-01T16:48:43Z</time>
      </trkpt>
      <trkpt lat="45.83852" lon="4.81012">
        <ele>401</ele>
        <time>2013-08-01T16:48:47Z</time>
      </trkpt>
      <trkpt lat="45.83854" lon="4.81017">
        <ele>400.8</ele>
        <time>2013-08-01T16:48:54Z</time>
      </trkpt>
      <trkpt lat="45.83856" lon="4.81022">
        <ele>400.6</ele>
        <time>2013-08-01T16:48:59Z</time>
      </trkpt>
      <trkpt lat="45.83858" lon="4.8103">
        <ele>400.6</ele>
        <time>2013-08-01T16:49:03Z</time>
      </trkpt>
      <trkpt lat="45.83861" lon="4.81038">
        <ele>400.4</ele>
        <time>2013-08-01T16:49:08Z</time>
      </trkpt>
      <trkpt lat="45.83867" lon="4.81048">
        <ele>400.8</ele>
        <time>2013-08-01T16:49:15Z</time>
      </trkpt>
      <trkpt lat="45.83867" lon="4.81052">
        <ele>401</ele>
        <time>2013-08-01T16:49:17Z</time>
      </trkpt>
      <trkpt lat="45.83867" lon="4.8106">
        <ele>401.2</ele>
        <time>2013-08-01T16:49:21Z</time>
      </trkpt>
      <trkpt lat="45.83866" lon="4.8107">
        <ele>401.4</ele>
        <time>2013-08-01T16:49:26Z</time>
      </trkpt>
      <trkpt lat="45.83867" lon="4.81072">
        <ele>401.6</ele>
        <time>2013-08-01T16:49:27Z</time>
      </trkpt>
      <trkpt lat="45.83866" lon="4.81079">
        <ele>401.6</ele>
        <time>2013-08-01T16:49:30Z</time>
      </trkpt>
      <trkpt lat="45.83867" lon="4.81083">
        <ele>401.8</ele>
        <time>2013-08-01T16:49:32Z</time>
      </trkpt>
      <trkpt lat="45.83867" lon="4.81084">
        <ele>402.2</ele>
        <time>2013-08-01T16:49:33Z</time>
      </trkpt>
      <trkpt lat="45.83867" lon="4.81092">
        <ele>402.4</ele>
        <time>2013-08-01T16:49:40Z</time>
      </trkpt>
      <trkpt lat="45.83864" lon="4.81093">
        <ele>403.2</ele>
        <time>2013-08-01T16:49:47Z</time>
      </trkpt>
      <trkpt lat="45.83862" lon="4.8109">
        <ele>403</ele>
        <time>2013-08-01T16:49:53Z</time>
      </trkpt>
      <trkpt lat="45.83861" lon="4.81087">
        <ele>402.8</ele>
        <time>2013-08-01T16:49:57Z</time>
      </trkpt>
      <trkpt lat="45.8386" lon="4.81086">
        <ele>401.8</ele>
        <time>2013-08-01T16:50:09Z</time>
      </trkpt>
      <trkpt lat="45.83865" lon="4.81093">
        <ele>400.8</ele>
        <time>2013-08-01T16:50:15Z</time>
      </trkpt>
      <trkpt lat="45.83864" lon="4.81094">
        <ele>400.8</ele>
        <time>2013-08-01T16:50:16Z</time>
      </trkpt>
      <trkpt lat="45.83861" lon="4.81093">
        <ele>400.4</ele>
        <time>2013-08-01T16:50:20Z</time>
      </trkpt>
      <trkpt lat="45.8386" lon="4.81092">
        <ele>400</ele>
        <time>2013-08-01T16:50:22Z</time>
      </trkpt>
      <trkpt lat="45.83857" lon="4.81093">
        <ele>399.2</ele>
        <time>2013-08-01T16:50:28Z</time>
      </trkpt>
      <trkpt lat="45.83855" lon="4.81094">
        <ele>398.6</ele>
        <time>2013-08-01T16:50:34Z</time>
      </trkpt>
      <trkpt lat="45.83855" lon="4.81091">
        <ele>398.2</ele>
        <time>2013-08-01T16:50:47Z</time>
      </trkpt>
      <trkpt lat="45.83856" lon="4.81089">
        <ele>398</ele>
        <time>2013-08-01T16:50:48Z</time>
      </trkpt>
      <trkpt lat="45.83856" lon="4.81087">
        <ele>397.8</ele>
        <time>2013-08-01T16:50:49Z</time>
      </trkpt>
      <trkpt lat="45.83857" lon="4.81084">
        <ele>397.6</ele>
        <time>2013-08-01T16:50:53Z</time>
      </trkpt>
      <trkpt lat="45.83856" lon="4.81082">
        <ele>397</ele>
        <time>2013-08-01T16:50:58Z</time>
      </trkpt>
      <trkpt lat="45.83852" lon="4.81084">
        <ele>396.4</ele>
        <time>2013-08-01T16:51:09Z</time>
      </trkpt>
      <trkpt lat="45.83851" lon="4.81081">
        <ele>395.8</ele>
        <time>2013-08-01T16:51:27Z</time>
      </trkpt>
      <trkpt lat="45.83849" lon="4.81082">
        <ele>395.6</ele>
        <time>2013-08-01T16:51:37Z</time>
      </trkpt>
      <trkpt lat="45.83849" lon="4.81085">
        <ele>395.6</ele>
        <time>2013-08-01T16:51:49Z</time>
      </trkpt>
      <trkpt lat="45.83851" lon="4.81085">
        <ele>395.4</ele>
        <time>2013-08-01T16:52:13Z</time>
      </trkpt>
      <trkpt lat="45.83848" lon="4.81082">
        <ele>395</ele>
        <time>2013-08-01T16:52:20Z</time>
      </trkpt>
      <trkpt lat="45.83848" lon="4.81085">
        <ele>395.4</ele>
        <time>2013-08-01T16:52:51Z</time>
      </trkpt>
      <trkpt lat="45.83847" lon="4.81084">
        <ele>395.2</ele>
        <time>2013-08-01T16:52:57Z</time>
      </trkpt>
      <trkpt lat="45.83847" lon="4.81084">
        <ele>395.2</ele>
        <time>2013-08-01T16:53:01Z</time>
      </trkpt>
      <trkpt lat="45.83852" lon="4.81084">
        <ele>394.2</ele>
        <time>2013-08-01T16:53:27Z</time>
      </trkpt>
      <trkpt lat="45.83854" lon="4.81083">
        <ele>393.8</ele>
        <time>2013-08-01T16:53:32Z</time>
      </trkpt>
      <trkpt lat="45.83853" lon="4.81083">
        <ele>393.8</ele>
        <time>2013-08-01T16:53:33Z</time>
      </trkpt>
      <trkpt lat="45.83853" lon="4.81083">
        <ele>393.4</ele>
        <time>2013-08-01T16:53:39Z</time>
      </trkpt>
      <trkpt lat="45.83853" lon="4.81084">
        <ele>393</ele>
        <time>2013-08-01T16:53:49Z</time>
      </trkpt>
      <trkpt lat="45.83853" lon="4.81088">
        <ele>392.8</ele>
        <time>2013-08-01T16:53:56Z</time>
      </trkpt>
      <trkpt lat="45.83853" lon="4.8109">
        <ele>392.8</ele>
        <time>2013-08-01T16:53:58Z</time>
      </trkpt>
      <trkpt lat="45.83853" lon="4.8109">
        <ele>392.8</ele>
        <time>2013-08-01T16:54:01Z</time>
      </trkpt>
      <trkpt lat="45.83853" lon="4.81091">
        <ele>392.4</ele>
        <time>2013-08-01T16:54:14Z</time>
      </trkpt>
      <trkpt lat="45.83853" lon="4.81088">
        <ele>392.2</ele>
        <time>2013-08-01T16:54:23Z</time>
      </trkpt>
      <trkpt lat="45.83851" lon="4.81085">
        <ele>392.6</ele>
        <time>2013-08-01T16:54:28Z</time>
      </trkpt>
      <trkpt lat="45.83851" lon="4.8109">
        <ele>393.6</ele>
        <time>2013-08-01T16:54:47Z</time>
      </trkpt>
      <trkpt lat="45.83852" lon="4.81096">
        <ele>395.6</ele>
        <time>2013-08-01T16:55:17Z</time>
      </trkpt>
      <trkpt lat="45.83852" lon="4.81096">
        <ele>395.4</ele>
        <time>2013-08-01T16:55:22Z</time>
      </trkpt>
      <trkpt lat="45.83852" lon="4.81094">
        <ele>395.2</ele>
        <time>2013-08-01T16:55:29Z</time>
      </trkpt>
      <trkpt lat="45.83851" lon="4.81094">
        <ele>395.6</ele>
        <time>2013-08-01T16:55:32Z</time>
      </trkpt>
      <trkpt lat="45.8385" lon="4.81094">
        <ele>397.4</ele>
        <time>2013-08-01T16:55:43Z</time>
      </trkpt>
      <trkpt lat="45.8385" lon="4.81093">
        <ele>399.4</ele>
        <time>2013-08-01T16:55:58Z</time>
      </trkpt>
      <trkpt lat="45.83848" lon="4.81099">
        <ele>399.2</ele>
        <time>2013-08-01T16:56:10Z</time>
      </trkpt>
      <trkpt lat="45.83852" lon="4.811">
        <ele>398.4</ele>
        <time>2013-08-01T16:56:23Z</time>
      </trkpt>
      <trkpt lat="45.83854" lon="4.81105">
        <ele>398.2</ele>
        <time>2013-08-01T16:56:28Z</time>
      </trkpt>
      <trkpt lat="45.83855" lon="4.81107">
        <ele>398.2</ele>
        <time>2013-08-01T16:56:31Z</time>
      </trkpt>
      <trkpt lat="45.83856" lon="4.81109">
        <ele>398</ele>
        <time>2013-08-01T16:56:35Z</time>
      </trkpt>
      <trkpt lat="45.83854" lon="4.8111">
        <ele>397.8</ele>
        <time>2013-08-01T16:56:40Z</time>
      </trkpt>
      <trkpt lat="45.83851" lon="4.81112">
        <ele>397.2</ele>
        <time>2013-08-01T16:56:45Z</time>
      </trkpt>
      <trkpt lat="45.83853" lon="4.81113">
        <ele>396.8</ele>
        <time>2013-08-01T16:56:51Z</time>
      </trkpt>
      <trkpt lat="45.83854" lon="4.81112">
        <ele>396.6</ele>
        <time>2013-08-01T16:56:52Z</time>
      </trkpt>
      <trkpt lat="45.83855" lon="4.81108">
        <ele>396.4</ele>
        <time>2013-08-01T16:56:55Z</time>
      </trkpt>
      <trkpt lat="45.83857" lon="4.81105">
        <ele>396.2</ele>
        <time>2013-08-01T16:56:58Z</time>
      </trkpt>
      <trkpt lat="45.83856" lon="4.81104">
        <ele>396.2</ele>
        <time>2013-08-01T16:57:03Z</time>
      </trkpt>
      <trkpt lat="45.83854" lon="4.81101">
        <ele>396.4</ele>
        <time>2013-08-01T16:57:07Z</time>
      </trkpt>
      <trkpt lat="45.83852" lon="4.81099">
        <ele>396.6</ele>
        <time>2013-08-01T16:57:11Z</time>
      </trkpt>
      <trkpt lat="45.83838" lon="4.81083">
        <ele>402.8</ele>
        <time>2013-08-01T16:58:13Z</time>
      </trkpt>
      <trkpt lat="45.83846" lon="4.81091">
        <ele>402.4</ele>
        <time>2013-08-01T16:58:18Z</time>
      </trkpt>
      <trkpt lat="45.8385" lon="4.8109">
        <ele>399.2</ele>
        <time>2013-08-01T16:58:40Z</time>
      </trkpt>
      <trkpt lat="45.8385" lon="4.81091">
        <ele>398.2</ele>
        <time>2013-08-01T16:58:47Z</time>
      </trkpt>
      <trkpt lat="45.83849" lon="4.81089">
        <ele>397.6</ele>
        <time>2013-08-01T16:58:53Z</time>
      </trkpt>
      <trkpt lat="45.83852" lon="4.81089">
        <ele>397</ele>
        <time>2013-08-01T16:58:58Z</time>
      </trkpt>
      <trkpt lat="45.83851" lon="4.81088">
        <ele>396.8</ele>
        <time>2013-08-01T16:59:05Z</time>
      </trkpt>
      <trkpt lat="45.83851" lon="4.81089">
        <ele>396.8</ele>
        <time>2013-08-01T16:59:12Z</time>
      </trkpt>
      <trkpt lat="45.8385" lon="4.81092">
        <ele>397.6</ele>
        <time>2013-08-01T16:59:34Z</time>
      </trkpt>
      <trkpt lat="45.83851" lon="4.81095">
        <ele>397.4</ele>
        <time>2013-08-01T16:59:39Z</time>
      </trkpt>
      <trkpt lat="45.83851" lon="4.81096">
        <ele>397.4</ele>
        <time>2013-08-01T16:59:40Z</time>
      </trkpt>
      <trkpt lat="45.83852" lon="4.81097">
        <ele>397.2</ele>
        <time>2013-08-01T16:59:41Z</time>
      </trkpt>
      <trkpt lat="45.83853" lon="4.81099">
        <ele>397.2</ele>
        <time>2013-08-01T16:59:42Z</time>
      </trkpt>
      <trkpt lat="45.83854" lon="4.81101">
        <ele>397</ele>
        <time>2013-08-01T16:59:44Z</time>
      </trkpt>
      <trkpt lat="45.83857" lon="4.81103">
        <ele>395.8</ele>
        <time>2013-08-01T16:59:53Z</time>
      </trkpt>
      <trkpt lat="45.83856" lon="4.8111">
        <ele>394.8</ele>
        <time>2013-08-01T17:00:52Z</time>
      </trkpt>
      <trkpt lat="45.83858" lon="4.8111">
        <ele>394</ele>
        <time>2013-08-01T17:00:58Z</time>
      </trkpt>
      <trkpt lat="45.83858" lon="4.81111">
        <ele>393.8</ele>
        <time>2013-08-01T17:01:00Z</time>
      </trkpt>
      <trkpt lat="45.83862" lon="4.81112">
        <ele>392.8</ele>
        <time>2013-08-01T17:01:09Z</time>
      </trkpt>
      <trkpt lat="45.83864" lon="4.81111">
        <ele>392.2</ele>
        <time>2013-08-01T17:01:16Z</time>
      </trkpt>
      <trkpt lat="45.83865" lon="4.81111">
        <ele>391.8</ele>
        <time>2013-08-01T17:01:22Z</time>
      </trkpt>
      <trkpt lat="45.83867" lon="4.81109">
        <ele>391.4</ele>
        <time>2013-08-01T17:01:27Z</time>
      </trkpt>
      <trkpt lat="45.83869" lon="4.81111">
        <ele>391.2</ele>
        <time>2013-08-01T17:01:32Z</time>
      </trkpt>
      <trkpt lat="45.83869" lon="4.81115">
        <ele>390.8</ele>
        <time>2013-08-01T17:01:37Z</time>
      </trkpt>
      <trkpt lat="45.83869" lon="4.81116">
        <ele>390.8</ele>
        <time>2013-08-01T17:01:38Z</time>
      </trkpt>
      <trkpt lat="45.83869" lon="4.81119">
        <ele>390.6</ele>
        <time>2013-08-01T17:01:40Z</time>
      </trkpt>
      <trkpt lat="45.8387" lon="4.81124">
        <ele>390.2</ele>
        <time>2013-08-01T17:01:45Z</time>
      </trkpt>
      <trkpt lat="45.83871" lon="4.81125">
        <ele>390.2</ele>
        <time>2013-08-01T17:01:46Z</time>
      </trkpt>
      <trkpt lat="45.83872" lon="4.81127">
        <ele>390.2</ele>
        <time>2013-08-01T17:01:49Z</time>
      </trkpt>
      <trkpt lat="45.83873" lon="4.81129">
        <ele>390.2</ele>
        <time>2013-08-01T17:01:50Z</time>
      </trkpt>
      <trkpt lat="45.83875" lon="4.81134">
        <ele>390</ele>
        <time>2013-08-01T17:01:54Z</time>
      </trkpt>
      <trkpt lat="45.83876" lon="4.81138">
        <ele>390</ele>
        <time>2013-08-01T17:01:56Z</time>
      </trkpt>
      <trkpt lat="45.83877" lon="4.81139">
        <ele>390</ele>
        <time>2013-08-01T17:01:57Z</time>
      </trkpt>
      <trkpt lat="45.83881" lon="4.81145">
        <ele>390.2</ele>
        <time>2013-08-01T17:02:01Z</time>
      </trkpt>
      <trkpt lat="45.83882" lon="4.81148">
        <ele>390.2</ele>
        <time>2013-08-01T17:02:04Z</time>
      </trkpt>
      <trkpt lat="45.83886" lon="4.81153">
        <ele>390.8</ele>
        <time>2013-08-01T17:02:09Z</time>
      </trkpt>
      <trkpt lat="45.83886" lon="4.81156">
        <ele>390.6</ele>
        <time>2013-08-01T17:02:11Z</time>
      </trkpt>
      <trkpt lat="45.83888" lon="4.81159">
        <ele>390.6</ele>
        <time>2013-08-01T17:02:14Z</time>
      </trkpt>
      <trkpt lat="45.83889" lon="4.81159">
        <ele>390.6</ele>
        <time>2013-08-01T17:02:15Z</time>
      </trkpt>
      <trkpt lat="45.8389" lon="4.81159">
        <ele>390.6</ele>
        <time>2013-08-01T17:02:16Z</time>
      </trkpt>
      <trkpt lat="45.83892" lon="4.81165">
        <ele>390.6</ele>
        <time>2013-08-01T17:02:20Z</time>
      </trkpt>
      <trkpt lat="45.83895" lon="4.81169">
        <ele>390.8</ele>
        <time>2013-08-01T17:02:23Z</time>
      </trkpt>
      <trkpt lat="45.83896" lon="4.81171">
        <ele>390.6</ele>
        <time>2013-08-01T17:02:24Z</time>
      </trkpt>
      <trkpt lat="45.83895" lon="4.81172">
        <ele>390.6</ele>
        <time>2013-08-01T17:02:26Z</time>
      </trkpt>
      <trkpt lat="45.83894" lon="4.8118">
        <ele>390.4</ele>
        <time>2013-08-01T17:02:30Z</time>
      </trkpt>
      <trkpt lat="45.83893" lon="4.81181">
        <ele>390.4</ele>
        <time>2013-08-01T17:02:31Z</time>
      </trkpt>
      <trkpt lat="45.83894" lon="4.81185">
        <ele>390</ele>
        <time>2013-08-01T17:02:35Z</time>
      </trkpt>
      <trkpt lat="45.83894" lon="4.8119">
        <ele>389.8</ele>
        <time>2013-08-01T17:02:38Z</time>
      </trkpt>
      <trkpt lat="45.83894" lon="4.81197">
        <ele>389.4</ele>
        <time>2013-08-01T17:02:42Z</time>
      </trkpt>
      <trkpt lat="45.83894" lon="4.81202">
        <ele>389</ele>
        <time>2013-08-01T17:02:45Z</time>
      </trkpt>
      <trkpt lat="45.83893" lon="4.81204">
        <ele>388.6</ele>
        <time>2013-08-01T17:02:48Z</time>
      </trkpt>
      <trkpt lat="45.83893" lon="4.81206">
        <ele>388.4</ele>
        <time>2013-08-01T17:02:50Z</time>
      </trkpt>
      <trkpt lat="45.83893" lon="4.81208">
        <ele>388.2</ele>
        <time>2013-08-01T17:02:52Z</time>
      </trkpt>
      <trkpt lat="45.83891" lon="4.8121">
        <ele>387.8</ele>
        <time>2013-08-01T17:02:55Z</time>
      </trkpt>
      <trkpt lat="45.83889" lon="4.8121">
        <ele>387.2</ele>
        <time>2013-08-01T17:02:59Z</time>
      </trkpt>
      <trkpt lat="45.83887" lon="4.81212">
        <ele>386.6</ele>
        <time>2013-08-01T17:03:04Z</time>
      </trkpt>
      <trkpt lat="45.83883" lon="4.81213">
        <ele>386.2</ele>
        <time>2013-08-01T17:03:06Z</time>
      </trkpt>
      <trkpt lat="45.83881" lon="4.81215">
        <ele>386</ele>
        <time>2013-08-01T17:03:08Z</time>
      </trkpt>
      <trkpt lat="45.83881" lon="4.81218">
        <ele>385.8</ele>
        <time>2013-08-01T17:03:10Z</time>
      </trkpt>
      <trkpt lat="45.83881" lon="4.81219">
        <ele>385.6</ele>
        <time>2013-08-01T17:03:11Z</time>
      </trkpt>
      <trkpt lat="45.83879" lon="4.81223">
        <ele>385.2</ele>
        <time>2013-08-01T17:03:14Z</time>
      </trkpt>
      <trkpt lat="45.83878" lon="4.81226">
        <ele>384.4</ele>
        <time>2013-08-01T17:03:20Z</time>
      </trkpt>
      <trkpt lat="45.8388" lon="4.81232">
        <ele>383.6</ele>
        <time>2013-08-01T17:03:26Z</time>
      </trkpt>
      <trkpt lat="45.83879" lon="4.81237">
        <ele>382.8</ele>
        <time>2013-08-01T17:03:31Z</time>
      </trkpt>
      <trkpt lat="45.8388" lon="4.81242">
        <ele>382.2</ele>
        <time>2013-08-01T17:03:36Z</time>
      </trkpt>
      <trkpt lat="45.8388" lon="4.81243">
        <ele>382</ele>
        <time>2013-08-01T17:03:37Z</time>
      </trkpt>
      <trkpt lat="45.83882" lon="4.81248">
        <ele>381.2</ele>
        <time>2013-08-01T17:03:43Z</time>
      </trkpt>
      <trkpt lat="45.83885" lon="4.81251">
        <ele>380.6</ele>
        <time>2013-08-01T17:03:48Z</time>
      </trkpt>
      <trkpt lat="45.83884" lon="4.81258">
        <ele>379.8</ele>
        <time>2013-08-01T17:03:53Z</time>
      </trkpt>
      <trkpt lat="45.83884" lon="4.8126">
        <ele>379.6</ele>
        <time>2013-08-01T17:03:55Z</time>
      </trkpt>
      <trkpt lat="45.83883" lon="4.81265">
        <ele>378.6</ele>
        <time>2013-08-01T17:04:01Z</time>
      </trkpt>
      <trkpt lat="45.83883" lon="4.8127">
        <ele>378</ele>
        <time>2013-08-01T17:04:06Z</time>
      </trkpt>
      <trkpt lat="45.83884" lon="4.81276">
        <ele>377.4</ele>
        <time>2013-08-01T17:04:12Z</time>
      </trkpt>
      <trkpt lat="45.83886" lon="4.81283">
        <ele>376.8</ele>
        <time>2013-08-01T17:04:18Z</time>
      </trkpt>
      <trkpt lat="45.83886" lon="4.81287">
        <ele>376.4</ele>
        <time>2013-08-01T17:04:21Z</time>
      </trkpt>
      <trkpt lat="45.83886" lon="4.8129">
        <ele>376.2</ele>
        <time>2013-08-01T17:04:24Z</time>
      </trkpt>
      <trkpt lat="45.83887" lon="4.81294">
        <ele>375.8</ele>
        <time>2013-08-01T17:04:29Z</time>
      </trkpt>
      <trkpt lat="45.83886" lon="4.81295">
        <ele>375.2</ele>
        <time>2013-08-01T17:04:35Z</time>
      </trkpt>
      <trkpt lat="45.83889" lon="4.81294">
        <ele>373.6</ele>
        <time>2013-08-01T17:05:09Z</time>
      </trkpt>
      <trkpt lat="45.83893" lon="4.81297">
        <ele>373.4</ele>
        <time>2013-08-01T17:05:16Z</time>
      </trkpt>
      <trkpt lat="45.83895" lon="4.813">
        <ele>373.4</ele>
        <time>2013-08-01T17:05:21Z</time>
      </trkpt>
      <trkpt lat="45.83896" lon="4.813">
        <ele>373.4</ele>
        <time>2013-08-01T17:05:22Z</time>
      </trkpt>
      <trkpt lat="45.83896" lon="4.81303">
        <ele>373.2</ele>
        <time>2013-08-01T17:05:26Z</time>
      </trkpt>
      <trkpt lat="45.83898" lon="4.81306">
        <ele>373.2</ele>
        <time>2013-08-01T17:05:32Z</time>
      </trkpt>
      <trkpt lat="45.839" lon="4.81309">
        <ele>373.4</ele>
        <time>2013-08-01T17:05:38Z</time>
      </trkpt>
      <trkpt lat="45.83903" lon="4.81309">
        <ele>373.4</ele>
        <time>2013-08-01T17:05:44Z</time>
      </trkpt>
      <trkpt lat="45.83909" lon="4.81311">
        <ele>375.8</ele>
        <time>2013-08-01T17:05:59Z</time>
      </trkpt>
      <trkpt lat="45.8391" lon="4.8131">
        <ele>376</ele>
        <time>2013-08-01T17:06:00Z</time>
      </trkpt>
      <trkpt lat="45.83912" lon="4.81305">
        <ele>377</ele>
        <time>2013-08-01T17:06:07Z</time>
      </trkpt>
      <trkpt lat="45.83913" lon="4.81304">
        <ele>377.2</ele>
        <time>2013-08-01T17:06:08Z</time>
      </trkpt>
      <trkpt lat="45.83916" lon="4.81306">
        <ele>377.8</ele>
        <time>2013-08-01T17:06:11Z</time>
      </trkpt>
      <trkpt lat="45.83917" lon="4.81308">
        <ele>378.4</ele>
        <time>2013-08-01T17:06:13Z</time>
      </trkpt>
      <trkpt lat="45.83919" lon="4.8131">
        <ele>378.6</ele>
        <time>2013-08-01T17:06:18Z</time>
      </trkpt>
      <trkpt lat="45.83922" lon="4.81314">
        <ele>379</ele>
        <time>2013-08-01T17:06:28Z</time>
      </trkpt>
      <trkpt lat="45.83925" lon="4.81315">
        <ele>378.8</ele>
        <time>2013-08-01T17:06:33Z</time>
      </trkpt>
      <trkpt lat="45.83926" lon="4.81316">
        <ele>378.8</ele>
        <time>2013-08-01T17:06:35Z</time>
      </trkpt>
      <trkpt lat="45.8393" lon="4.81319">
        <ele>379.4</ele>
        <time>2013-08-01T17:06:41Z</time>
      </trkpt>
      <trkpt lat="45.83932" lon="4.81319">
        <ele>379.6</ele>
        <time>2013-08-01T17:06:43Z</time>
      </trkpt>
      <trkpt lat="45.83936" lon="4.81317">
        <ele>380.2</ele>
        <time>2013-08-01T17:06:47Z</time>
      </trkpt>
      <trkpt lat="45.83937" lon="4.81318">
        <ele>380.4</ele>
        <time>2013-08-01T17:06:48Z</time>
      </trkpt>
      <trkpt lat="45.83938" lon="4.81318">
        <ele>380.6</ele>
        <time>2013-08-01T17:06:49Z</time>
      </trkpt>
      <trkpt lat="45.83939" lon="4.81319">
        <ele>380.8</ele>
        <time>2013-08-01T17:06:51Z</time>
      </trkpt>
      <trkpt lat="45.83941" lon="4.81323">
        <ele>382</ele>
        <time>2013-08-01T17:06:55Z</time>
      </trkpt>
      <trkpt lat="45.83942" lon="4.81323">
        <ele>382.2</ele>
        <time>2013-08-01T17:06:56Z</time>
      </trkpt>
      <trkpt lat="45.83943" lon="4.81324">
        <ele>382.2</ele>
        <time>2013-08-01T17:06:57Z</time>
      </trkpt>
      <trkpt lat="45.83946" lon="4.81329">
        <ele>383</ele>
        <time>2013-08-01T17:07:03Z</time>
      </trkpt>
      <trkpt lat="45.83949" lon="4.81334">
        <ele>383.2</ele>
        <time>2013-08-01T17:07:10Z</time>
      </trkpt>
      <trkpt lat="45.83954" lon="4.81341">
        <ele>382.8</ele>
        <time>2013-08-01T17:07:29Z</time>
      </trkpt>
      <trkpt lat="45.83955" lon="4.81343">
        <ele>382.6</ele>
        <time>2013-08-01T17:07:32Z</time>
      </trkpt>
      <trkpt lat="45.83955" lon="4.81351">
        <ele>380.8</ele>
        <time>2013-08-01T17:07:56Z</time>
      </trkpt>
      <trkpt lat="45.83953" lon="4.81353">
        <ele>379.6</ele>
        <time>2013-08-01T17:08:10Z</time>
      </trkpt>
      <trkpt lat="45.83952" lon="4.81356">
        <ele>377.2</ele>
        <time>2013-08-01T17:08:34Z</time>
      </trkpt>
      <trkpt lat="45.83952" lon="4.8136">
        <ele>374.2</ele>
        <time>2013-08-01T17:08:56Z</time>
      </trkpt>
      <trkpt lat="45.83952" lon="4.81361">
        <ele>374</ele>
        <time>2013-08-01T17:08:59Z</time>
      </trkpt>
      <trkpt lat="45.83954" lon="4.81366">
        <ele>373.2</ele>
        <time>2013-08-01T17:09:06Z</time>
      </trkpt>
      <trkpt lat="45.83956" lon="4.81371">
        <ele>372</ele>
        <time>2013-08-01T17:09:27Z</time>
      </trkpt>
      <trkpt lat="45.83953" lon="4.81365">
        <ele>371.6</ele>
        <time>2013-08-01T17:09:36Z</time>
      </trkpt>
      <trkpt lat="45.8395" lon="4.81362">
        <ele>371</ele>
        <time>2013-08-01T17:09:41Z</time>
      </trkpt>
      <trkpt lat="45.8395" lon="4.81363">
        <ele>370.4</ele>
        <time>2013-08-01T17:09:50Z</time>
      </trkpt>
      <trkpt lat="45.8395" lon="4.81361">
        <ele>370.4</ele>
        <time>2013-08-01T17:09:54Z</time>
      </trkpt>
      <trkpt lat="45.8395" lon="4.81359">
        <ele>370.4</ele>
        <time>2013-08-01T17:10:02Z</time>
      </trkpt>
      <trkpt lat="45.83951" lon="4.81358">
        <ele>370.6</ele>
        <time>2013-08-01T17:10:09Z</time>
      </trkpt>
      <trkpt lat="45.83952" lon="4.81356">
        <ele>371.4</ele>
        <time>2013-08-01T17:10:16Z</time>
      </trkpt>
      <trkpt lat="45.83952" lon="4.81354">
        <ele>371.6</ele>
        <time>2013-08-01T17:10:21Z</time>
      </trkpt>
      <trkpt lat="45.83952" lon="4.81352">
        <ele>371.8</ele>
        <time>2013-08-01T17:10:25Z</time>
      </trkpt>
      <trkpt lat="45.83952" lon="4.81351">
        <ele>372.4</ele>
        <time>2013-08-01T17:10:30Z</time>
      </trkpt>
      <trkpt lat="45.83954" lon="4.81348">
        <ele>373.6</ele>
        <time>2013-08-01T17:10:37Z</time>
      </trkpt>
      <trkpt lat="45.83954" lon="4.81346">
        <ele>374.4</ele>
        <time>2013-08-01T17:10:44Z</time>
      </trkpt>
      <trkpt lat="45.83955" lon="4.81345">
        <ele>374.4</ele>
        <time>2013-08-01T17:10:46Z</time>
      </trkpt>
      <trkpt lat="45.83954" lon="4.81345">
        <ele>375</ele>
        <time>2013-08-01T17:10:50Z</time>
      </trkpt>
      <trkpt lat="45.83954" lon="4.81341">
        <ele>375.2</ele>
        <time>2013-08-01T17:10:54Z</time>
      </trkpt>
      <trkpt lat="45.83953" lon="4.81333">
        <ele>375.2</ele>
        <time>2013-08-01T17:11:00Z</time>
      </trkpt>
      <trkpt lat="45.83952" lon="4.8133">
        <ele>375.2</ele>
        <time>2013-08-01T17:11:05Z</time>
      </trkpt>
      <trkpt lat="45.83957" lon="4.8133">
        <ele>377.8</ele>
        <time>2013-08-01T17:11:44Z</time>
      </trkpt>
      <trkpt lat="45.83956" lon="4.81335">
        <ele>378.6</ele>
        <time>2013-08-01T17:11:48Z</time>
      </trkpt>
      <trkpt lat="45.83956" lon="4.81333">
        <ele>379</ele>
        <time>2013-08-01T17:11:56Z</time>
      </trkpt>
      <trkpt lat="45.83957" lon="4.81336">
        <ele>379.2</ele>
        <time>2013-08-01T17:12:00Z</time>
      </trkpt>
      <trkpt lat="45.83958" lon="4.81338">
        <ele>379.2</ele>
        <time>2013-08-01T17:12:03Z</time>
      </trkpt>
      <trkpt lat="45.8396" lon="4.81339">
        <ele>379.4</ele>
        <time>2013-08-01T17:12:06Z</time>
      </trkpt>
      <trkpt lat="45.83964" lon="4.81346">
        <ele>380.2</ele>
        <time>2013-08-01T17:12:26Z</time>
      </trkpt>
      <trkpt lat="45.83969" lon="4.81347">
        <ele>380</ele>
        <time>2013-08-01T17:12:36Z</time>
      </trkpt>
      <trkpt lat="45.83969" lon="4.81346">
        <ele>379.6</ele>
        <time>2013-08-01T17:12:45Z</time>
      </trkpt>
      <trkpt lat="45.83967" lon="4.81342">
        <ele>379.6</ele>
        <time>2013-08-01T17:12:55Z</time>
      </trkpt>
      <trkpt lat="45.83972" lon="4.81341">
        <ele>380.2</ele>
        <time>2013-08-01T17:13:25Z</time>
      </trkpt>
      <trkpt lat="45.83973" lon="4.81345">
        <ele>381.4</ele>
        <time>2013-08-01T17:13:33Z</time>
      </trkpt>
      <trkpt lat="45.83974" lon="4.81346">
        <ele>381.6</ele>
        <time>2013-08-01T17:13:34Z</time>
      </trkpt>
      <trkpt lat="45.83976" lon="4.81345">
        <ele>382.8</ele>
        <time>2013-08-01T17:13:44Z</time>
      </trkpt>
      <trkpt lat="45.83983" lon="4.81345">
        <ele>384.8</ele>
        <time>2013-08-01T17:14:09Z</time>
      </trkpt>
      <trkpt lat="45.83985" lon="4.81344">
        <ele>385</ele>
        <time>2013-08-01T17:14:13Z</time>
      </trkpt>
      <trkpt lat="45.83988" lon="4.81347">
        <ele>385.2</ele>
        <time>2013-08-01T17:14:20Z</time>
      </trkpt>
      <trkpt lat="45.83987" lon="4.81346">
        <ele>385</ele>
        <time>2013-08-01T17:14:26Z</time>
      </trkpt>
      <trkpt lat="45.83987" lon="4.81344">
        <ele>385</ele>
        <time>2013-08-01T17:14:31Z</time>
      </trkpt>
      <trkpt lat="45.83989" lon="4.81346">
        <ele>385</ele>
        <time>2013-08-01T17:14:35Z</time>
      </trkpt>
      <trkpt lat="45.83994" lon="4.81348">
        <ele>387</ele>
        <time>2013-08-01T17:14:53Z</time>
      </trkpt>
      <trkpt lat="45.83996" lon="4.81348">
        <ele>388.4</ele>
        <time>2013-08-01T17:15:00Z</time>
      </trkpt>
      <trkpt lat="45.84002" lon="4.8134">
        <ele>391.6</ele>
        <time>2013-08-01T17:15:42Z</time>
      </trkpt>
      <trkpt lat="45.84005" lon="4.81342">
        <ele>391.8</ele>
        <time>2013-08-01T17:15:54Z</time>
      </trkpt>
      <trkpt lat="45.84005" lon="4.81342">
        <ele>391.8</ele>
        <time>2013-08-01T17:15:55Z</time>
      </trkpt>
      <trkpt lat="45.8401" lon="4.81348">
        <ele>391.6</ele>
        <time>2013-08-01T17:16:06Z</time>
      </trkpt>
      <trkpt lat="45.8401" lon="4.81347">
        <ele>391.6</ele>
        <time>2013-08-01T17:16:13Z</time>
      </trkpt>
      <trkpt lat="45.84014" lon="4.81351">
        <ele>391.6</ele>
        <time>2013-08-01T17:16:35Z</time>
      </trkpt>
      <trkpt lat="45.84015" lon="4.8135">
        <ele>391.4</ele>
        <time>2013-08-01T17:16:43Z</time>
      </trkpt>
      <trkpt lat="45.84016" lon="4.81354">
        <ele>391.2</ele>
        <time>2013-08-01T17:16:55Z</time>
      </trkpt>
      <trkpt lat="45.84018" lon="4.81354">
        <ele>391.2</ele>
        <time>2013-08-01T17:16:56Z</time>
      </trkpt>
      <trkpt lat="45.8402" lon="4.81354">
        <ele>391.6</ele>
        <time>2013-08-01T17:17:00Z</time>
      </trkpt>
      <trkpt lat="45.84023" lon="4.81356">
        <ele>393</ele>
        <time>2013-08-01T17:17:09Z</time>
      </trkpt>
      <trkpt lat="45.84028" lon="4.81358">
        <ele>394.4</ele>
        <time>2013-08-01T17:17:31Z</time>
      </trkpt>
      <trkpt lat="45.84029" lon="4.81359">
        <ele>394.2</ele>
        <time>2013-08-01T17:17:37Z</time>
      </trkpt>
      <trkpt lat="45.8403" lon="4.81359">
        <ele>394.2</ele>
        <time>2013-08-01T17:17:39Z</time>
      </trkpt>
      <trkpt lat="45.84031" lon="4.81361">
        <ele>394</ele>
        <time>2013-08-01T17:17:44Z</time>
      </trkpt>
      <trkpt lat="45.84033" lon="4.81362">
        <ele>393.8</ele>
        <time>2013-08-01T17:17:58Z</time>
      </trkpt>
      <trkpt lat="45.84036" lon="4.81364">
        <ele>393</ele>
        <time>2013-08-01T17:18:13Z</time>
      </trkpt>
      <trkpt lat="45.84036" lon="4.81365">
        <ele>392.8</ele>
        <time>2013-08-01T17:18:17Z</time>
      </trkpt>
      <trkpt lat="45.84037" lon="4.81367">
        <ele>392.6</ele>
        <time>2013-08-01T17:18:26Z</time>
      </trkpt>
      <trkpt lat="45.84036" lon="4.81366">
        <ele>392.2</ele>
        <time>2013-08-01T17:18:36Z</time>
      </trkpt>
      <trkpt lat="45.84039" lon="4.81363">
        <ele>391.6</ele>
        <time>2013-08-01T17:18:46Z</time>
      </trkpt>
      <trkpt lat="45.8404" lon="4.81368">
        <ele>390.8</ele>
        <time>2013-08-01T17:19:02Z</time>
      </trkpt>
      <trkpt lat="45.84042" lon="4.81368">
        <ele>390</ele>
        <time>2013-08-01T17:19:27Z</time>
      </trkpt>
      <trkpt lat="45.84042" lon="4.81367">
        <ele>390</ele>
        <time>2013-08-01T17:19:28Z</time>
      </trkpt>
      <trkpt lat="45.84043" lon="4.81366">
        <ele>389.6</ele>
        <time>2013-08-01T17:19:35Z</time>
      </trkpt>
      <trkpt lat="45.84048" lon="4.81366">
        <ele>388.6</ele>
        <time>2013-08-01T17:20:11Z</time>
      </trkpt>
      <trkpt lat="45.84051" lon="4.81362">
        <ele>388.4</ele>
        <time>2013-08-01T17:20:21Z</time>
      </trkpt>
      <trkpt lat="45.84052" lon="4.81363">
        <ele>388</ele>
        <time>2013-08-01T17:20:31Z</time>
      </trkpt>
      <trkpt lat="45.84056" lon="4.81369">
        <ele>388.4</ele>
        <time>2013-08-01T17:20:40Z</time>
      </trkpt>
      <trkpt lat="45.84057" lon="4.81371">
        <ele>390.2</ele>
        <time>2013-08-01T17:20:56Z</time>
      </trkpt>
      <trkpt lat="45.84059" lon="4.81371">
        <ele>390.2</ele>
        <time>2013-08-01T17:21:03Z</time>
      </trkpt>
      <trkpt lat="45.84061" lon="4.81372">
        <ele>390.2</ele>
        <time>2013-08-01T17:21:06Z</time>
      </trkpt>
      <trkpt lat="45.84062" lon="4.81375">
        <ele>389.4</ele>
        <time>2013-08-01T17:21:24Z</time>
      </trkpt>
      <trkpt lat="45.8406" lon="4.81375">
        <ele>388.8</ele>
        <time>2013-08-01T17:21:31Z</time>
      </trkpt>
      <trkpt lat="45.84058" lon="4.81379">
        <ele>387.8</ele>
        <time>2013-08-01T17:21:40Z</time>
      </trkpt>
      <trkpt lat="45.84062" lon="4.81381">
        <ele>387.6</ele>
        <time>2013-08-01T17:21:46Z</time>
      </trkpt>
      <trkpt lat="45.84064" lon="4.81382">
        <ele>387.4</ele>
        <time>2013-08-01T17:21:50Z</time>
      </trkpt>
      <trkpt lat="45.84066" lon="4.81384">
        <ele>387.4</ele>
        <time>2013-08-01T17:21:54Z</time>
      </trkpt>
      <trkpt lat="45.84066" lon="4.81386">
        <ele>387.2</ele>
        <time>2013-08-01T17:21:59Z</time>
      </trkpt>
      <trkpt lat="45.84068" lon="4.81386">
        <ele>387.4</ele>
        <time>2013-08-01T17:22:05Z</time>
      </trkpt>
      <trkpt lat="45.8407" lon="4.81388">
        <ele>387.4</ele>
        <time>2013-08-01T17:22:10Z</time>
      </trkpt>
      <trkpt lat="45.84071" lon="4.81386">
        <ele>387.6</ele>
        <time>2013-08-01T17:22:20Z</time>
      </trkpt>
      <trkpt lat="45.84071" lon="4.81383">
        <ele>387.6</ele>
        <time>2013-08-01T17:22:24Z</time>
      </trkpt>
      <trkpt lat="45.84073" lon="4.81383">
        <ele>387.6</ele>
        <time>2013-08-01T17:22:35Z</time>
      </trkpt>
      <trkpt lat="45.84072" lon="4.81382">
        <ele>387.6</ele>
        <time>2013-08-01T17:22:44Z</time>
      </trkpt>
      <trkpt lat="45.84074" lon="4.81379">
        <ele>387.4</ele>
        <time>2013-08-01T17:22:51Z</time>
      </trkpt>
      <trkpt lat="45.84075" lon="4.81379">
        <ele>387.6</ele>
        <time>2013-08-01T17:22:55Z</time>
      </trkpt>
      <trkpt lat="45.84078" lon="4.81379">
        <ele>387.8</ele>
        <time>2013-08-01T17:23:04Z</time>
      </trkpt>
      <trkpt lat="45.8408" lon="4.8138">
        <ele>388.6</ele>
        <time>2013-08-01T17:23:09Z</time>
      </trkpt>
      <trkpt lat="45.8408" lon="4.8138">
        <ele>389</ele>
        <time>2013-08-01T17:23:10Z</time>
      </trkpt>
      <trkpt lat="45.84081" lon="4.8138">
        <ele>389</ele>
        <time>2013-08-01T17:23:11Z</time>
      </trkpt>
      <trkpt lat="45.84082" lon="4.81379">
        <ele>389.2</ele>
        <time>2013-08-01T17:23:13Z</time>
      </trkpt>
      <trkpt lat="45.84084" lon="4.81379">
        <ele>389.8</ele>
        <time>2013-08-01T17:23:19Z</time>
      </trkpt>
      <trkpt lat="45.8409" lon="4.81383">
        <ele>390.6</ele>
        <time>2013-08-01T17:23:41Z</time>
      </trkpt>
      <trkpt lat="45.84092" lon="4.81381">
        <ele>391.8</ele>
        <time>2013-08-01T17:24:00Z</time>
      </trkpt>
      <trkpt lat="45.84092" lon="4.8138">
        <ele>392.2</ele>
        <time>2013-08-01T17:24:05Z</time>
      </trkpt>
      <trkpt lat="45.84095" lon="4.8138">
        <ele>395.4</ele>
        <time>2013-08-01T17:24:23Z</time>
      </trkpt>
      <trkpt lat="45.84098" lon="4.81385">
        <ele>403.2</ele>
        <time>2013-08-01T17:25:28Z</time>
      </trkpt>
      <trkpt lat="45.841" lon="4.81388">
        <ele>402.8</ele>
        <time>2013-08-01T17:25:34Z</time>
      </trkpt>
      <trkpt lat="45.84101" lon="4.81389">
        <ele>402.4</ele>
        <time>2013-08-01T17:25:40Z</time>
      </trkpt>
      <trkpt lat="45.84102" lon="4.81392">
        <ele>402.2</ele>
        <time>2013-08-01T17:25:44Z</time>
      </trkpt>
      <trkpt lat="45.84106" lon="4.814">
        <ele>401</ele>
        <time>2013-08-01T17:26:08Z</time>
      </trkpt>
      <trkpt lat="45.84106" lon="4.81403">
        <ele>400.8</ele>
        <time>2013-08-01T17:26:12Z</time>
      </trkpt>
      <trkpt lat="45.84107" lon="4.81405">
        <ele>400.8</ele>
        <time>2013-08-01T17:26:15Z</time>
      </trkpt>
      <trkpt lat="45.84106" lon="4.81407">
        <ele>400.6</ele>
        <time>2013-08-01T17:26:18Z</time>
      </trkpt>
      <trkpt lat="45.84104" lon="4.8141">
        <ele>400</ele>
        <time>2013-08-01T17:26:26Z</time>
      </trkpt>
      <trkpt lat="45.84103" lon="4.81412">
        <ele>399.8</ele>
        <time>2013-08-01T17:26:28Z</time>
      </trkpt>
      <trkpt lat="45.84102" lon="4.81416">
        <ele>399.4</ele>
        <time>2013-08-01T17:26:32Z</time>
      </trkpt>
      <trkpt lat="45.84104" lon="4.81417">
        <ele>398.2</ele>
        <time>2013-08-01T17:26:42Z</time>
      </trkpt>
      <trkpt lat="45.84102" lon="4.81429">
        <ele>393.6</ele>
        <time>2013-08-01T17:27:27Z</time>
      </trkpt>
      <trkpt lat="45.84105" lon="4.81433">
        <ele>393.2</ele>
        <time>2013-08-01T17:27:30Z</time>
      </trkpt>
      <trkpt lat="45.84111" lon="4.81438">
        <ele>392.6</ele>
        <time>2013-08-01T17:27:35Z</time>
      </trkpt>
      <trkpt lat="45.84122" lon="4.81443">
        <ele>392.2</ele>
        <time>2013-08-01T17:27:41Z</time>
      </trkpt>
      <trkpt lat="45.84124" lon="4.81444">
        <ele>392.2</ele>
        <time>2013-08-01T17:27:42Z</time>
      </trkpt>
      <trkpt lat="45.84125" lon="4.81446">
        <ele>392.2</ele>
        <time>2013-08-01T17:27:43Z</time>
      </trkpt>
      <trkpt lat="45.84128" lon="4.8145">
        <ele>392.2</ele>
        <time>2013-08-01T17:27:45Z</time>
      </trkpt>
      <trkpt lat="45.84128" lon="4.81451">
        <ele>392</ele>
        <time>2013-08-01T17:27:46Z</time>
      </trkpt>
      <trkpt lat="45.8413" lon="4.81452">
        <ele>392.2</ele>
        <time>2013-08-01T17:27:48Z</time>
      </trkpt>
      <trkpt lat="45.84132" lon="4.81454">
        <ele>392.2</ele>
        <time>2013-08-01T17:27:50Z</time>
      </trkpt>
      <trkpt lat="45.84133" lon="4.81455">
        <ele>392.2</ele>
        <time>2013-08-01T17:27:51Z</time>
      </trkpt>
      <trkpt lat="45.84135" lon="4.81457">
        <ele>392.2</ele>
        <time>2013-08-01T17:27:53Z</time>
      </trkpt>
      <trkpt lat="45.84139" lon="4.81458">
        <ele>392.2</ele>
        <time>2013-08-01T17:27:56Z</time>
      </trkpt>
      <trkpt lat="45.84144" lon="4.8146">
        <ele>392</ele>
        <time>2013-08-01T17:28:01Z</time>
      </trkpt>
      <trkpt lat="45.84145" lon="4.81462">
        <ele>392</ele>
        <time>2013-08-01T17:28:02Z</time>
      </trkpt>
      <trkpt lat="45.84149" lon="4.81466">
        <ele>392</ele>
        <time>2013-08-01T17:28:06Z</time>
      </trkpt>
      <trkpt lat="45.84152" lon="4.81467">
        <ele>391.8</ele>
        <time>2013-08-01T17:28:08Z</time>
      </trkpt>
      <trkpt lat="45.8416" lon="4.8147">
        <ele>391.4</ele>
        <time>2013-08-01T17:28:13Z</time>
      </trkpt>
      <trkpt lat="45.84161" lon="4.8147">
        <ele>391.4</ele>
        <time>2013-08-01T17:28:14Z</time>
      </trkpt>
      <trkpt lat="45.84162" lon="4.8147">
        <ele>391.2</ele>
        <time>2013-08-01T17:28:15Z</time>
      </trkpt>
      <trkpt lat="45.84164" lon="4.81471">
        <ele>391.2</ele>
        <time>2013-08-01T17:28:17Z</time>
      </trkpt>
      <trkpt lat="45.84166" lon="4.81472">
        <ele>391.2</ele>
        <time>2013-08-01T17:28:19Z</time>
      </trkpt>
      <trkpt lat="45.84169" lon="4.8147">
        <ele>390.8</ele>
        <time>2013-08-01T17:28:22Z</time>
      </trkpt>
      <trkpt lat="45.84177" lon="4.81469">
        <ele>390.6</ele>
        <time>2013-08-01T17:28:27Z</time>
      </trkpt>
      <trkpt lat="45.8418" lon="4.81468">
        <ele>390.6</ele>
        <time>2013-08-01T17:28:29Z</time>
      </trkpt>
      <trkpt lat="45.84182" lon="4.81467">
        <ele>390.6</ele>
        <time>2013-08-01T17:28:31Z</time>
      </trkpt>
      <trkpt lat="45.84185" lon="4.81466">
        <ele>390.6</ele>
        <time>2013-08-01T17:28:33Z</time>
      </trkpt>
      <trkpt lat="45.84187" lon="4.81467">
        <ele>390.6</ele>
        <time>2013-08-01T17:28:35Z</time>
      </trkpt>
      <trkpt lat="45.84195" lon="4.81467">
        <ele>390.6</ele>
        <time>2013-08-01T17:28:38Z</time>
      </trkpt>
      <trkpt lat="45.84198" lon="4.81466">
        <ele>390.6</ele>
        <time>2013-08-01T17:28:40Z</time>
      </trkpt>
      <trkpt lat="45.84204" lon="4.81464">
        <ele>391.2</ele>
        <time>2013-08-01T17:28:43Z</time>
      </trkpt>
      <trkpt lat="45.84211" lon="4.81463">
        <ele>391.6</ele>
        <time>2013-08-01T17:28:47Z</time>
      </trkpt>
      <trkpt lat="45.84211" lon="4.81465">
        <ele>391.6</ele>
        <time>2013-08-01T17:28:48Z</time>
      </trkpt>
      <trkpt lat="45.8421" lon="4.81471">
        <ele>391.4</ele>
        <time>2013-08-01T17:28:51Z</time>
      </trkpt>
      <trkpt lat="45.84209" lon="4.81475">
        <ele>391.4</ele>
        <time>2013-08-01T17:28:53Z</time>
      </trkpt>
      <trkpt lat="45.84208" lon="4.8148">
        <ele>391.4</ele>
        <time>2013-08-01T17:28:55Z</time>
      </trkpt>
      <trkpt lat="45.84207" lon="4.81488">
        <ele>391.4</ele>
        <time>2013-08-01T17:28:58Z</time>
      </trkpt>
      <trkpt lat="45.84207" lon="4.8149">
        <ele>391.4</ele>
        <time>2013-08-01T17:28:59Z</time>
      </trkpt>
      <trkpt lat="45.84208" lon="4.81497">
        <ele>391.4</ele>
        <time>2013-08-01T17:29:02Z</time>
      </trkpt>
      <trkpt lat="45.84207" lon="4.81501">
        <ele>391.4</ele>
        <time>2013-08-01T17:29:03Z</time>
      </trkpt>
      <trkpt lat="45.84204" lon="4.81514">
        <ele>391.4</ele>
        <time>2013-08-01T17:29:07Z</time>
      </trkpt>
      <trkpt lat="45.84207" lon="4.81525">
        <ele>391</ele>
        <time>2013-08-01T17:29:11Z</time>
      </trkpt>
      <trkpt lat="45.84207" lon="4.81528">
        <ele>391</ele>
        <time>2013-08-01T17:29:12Z</time>
      </trkpt>
      <trkpt lat="45.84207" lon="4.81532">
        <ele>390.8</ele>
        <time>2013-08-01T17:29:13Z</time>
      </trkpt>
      <trkpt lat="45.84207" lon="4.81534">
        <ele>390.8</ele>
        <time>2013-08-01T17:29:14Z</time>
      </trkpt>
      <trkpt lat="45.84209" lon="4.8154">
        <ele>390.2</ele>
        <time>2013-08-01T17:29:18Z</time>
      </trkpt>
      <trkpt lat="45.84218" lon="4.81545">
        <ele>389.6</ele>
        <time>2013-08-01T17:29:23Z</time>
      </trkpt>
      <trkpt lat="45.84235" lon="4.81552">
        <ele>389.6</ele>
        <time>2013-08-01T17:29:28Z</time>
      </trkpt>
      <trkpt lat="45.84243" lon="4.81555">
        <ele>389.4</ele>
        <time>2013-08-01T17:29:31Z</time>
      </trkpt>
      <trkpt lat="45.84247" lon="4.81554">
        <ele>389.4</ele>
        <time>2013-08-01T17:29:33Z</time>
      </trkpt>
      <trkpt lat="45.84254" lon="4.81554">
        <ele>389.2</ele>
        <time>2013-08-01T17:29:36Z</time>
      </trkpt>
      <trkpt lat="45.84258" lon="4.81556">
        <ele>389.2</ele>
        <time>2013-08-01T17:29:38Z</time>
      </trkpt>
      <trkpt lat="45.84266" lon="4.81556">
        <ele>389</ele>
        <time>2013-08-01T17:29:43Z</time>
      </trkpt>
      <trkpt lat="45.84267" lon="4.81556">
        <ele>388.8</ele>
        <time>2013-08-01T17:29:44Z</time>
      </trkpt>
      <trkpt lat="45.84273" lon="4.81554">
        <ele>388.6</ele>
        <time>2013-08-01T17:29:47Z</time>
      </trkpt>
      <trkpt lat="45.84278" lon="4.81551">
        <ele>388.4</ele>
        <time>2013-08-01T17:29:50Z</time>
      </trkpt>
      <trkpt lat="45.84287" lon="4.81539">
        <ele>387.8</ele>
        <time>2013-08-01T17:29:55Z</time>
      </trkpt>
      <trkpt lat="45.84291" lon="4.81537">
        <ele>387.8</ele>
        <time>2013-08-01T17:29:56Z</time>
      </trkpt>
      <trkpt lat="45.84297" lon="4.81534">
        <ele>387.6</ele>
        <time>2013-08-01T17:29:58Z</time>
      </trkpt>
      <trkpt lat="45.84299" lon="4.81534">
        <ele>387.6</ele>
        <time>2013-08-01T17:29:59Z</time>
      </trkpt>
      <trkpt lat="45.84306" lon="4.81523">
        <ele>387.2</ele>
        <time>2013-08-01T17:30:03Z</time>
      </trkpt>
      <trkpt lat="45.84318" lon="4.81512">
        <ele>386.6</ele>
        <time>2013-08-01T17:30:08Z</time>
      </trkpt>
      <trkpt lat="45.84321" lon="4.81507">
        <ele>386.4</ele>
        <time>2013-08-01T17:30:10Z</time>
      </trkpt>
      <trkpt lat="45.84326" lon="4.81499">
        <ele>386.2</ele>
        <time>2013-08-01T17:30:13Z</time>
      </trkpt>
      <trkpt lat="45.84331" lon="4.81487">
        <ele>385.8</ele>
        <time>2013-08-01T17:30:17Z</time>
      </trkpt>
      <trkpt lat="45.84332" lon="4.81483">
        <ele>385.6</ele>
        <time>2013-08-01T17:30:18Z</time>
      </trkpt>
      <trkpt lat="45.84339" lon="4.81474">
        <ele>385.2</ele>
        <time>2013-08-01T17:30:22Z</time>
      </trkpt>
      <trkpt lat="45.84348" lon="4.81469">
        <ele>384.6</ele>
        <time>2013-08-01T17:30:26Z</time>
      </trkpt>
      <trkpt lat="45.84351" lon="4.81468">
        <ele>384.6</ele>
        <time>2013-08-01T17:30:27Z</time>
      </trkpt>
      <trkpt lat="45.84362" lon="4.81459">
        <ele>384</ele>
        <time>2013-08-01T17:30:32Z</time>
      </trkpt>
      <trkpt lat="45.84364" lon="4.81457">
        <ele>384</ele>
        <time>2013-08-01T17:30:33Z</time>
      </trkpt>
      <trkpt lat="45.84377" lon="4.81452">
        <ele>383.4</ele>
        <time>2013-08-01T17:30:38Z</time>
      </trkpt>
      <trkpt lat="45.84383" lon="4.81449">
        <ele>383.2</ele>
        <time>2013-08-01T17:30:41Z</time>
      </trkpt>
      <trkpt lat="45.84387" lon="4.81446">
        <ele>383</ele>
        <time>2013-08-01T17:30:43Z</time>
      </trkpt>
      <trkpt lat="45.84393" lon="4.81444">
        <ele>382.6</ele>
        <time>2013-08-01T17:30:46Z</time>
      </trkpt>
      <trkpt lat="45.84395" lon="4.81445">
        <ele>382.4</ele>
        <time>2013-08-01T17:30:47Z</time>
      </trkpt>
      <trkpt lat="45.844" lon="4.81439">
        <ele>381.6</ele>
        <time>2013-08-01T17:30:52Z</time>
      </trkpt>
      <trkpt lat="45.84406" lon="4.81441">
        <ele>380.8</ele>
        <time>2013-08-01T17:30:56Z</time>
      </trkpt>
      <trkpt lat="45.84412" lon="4.81443">
        <ele>379.6</ele>
        <time>2013-08-01T17:31:01Z</time>
      </trkpt>
      <trkpt lat="45.84419" lon="4.81445">
        <ele>379.2</ele>
        <time>2013-08-01T17:31:04Z</time>
      </trkpt>
      <trkpt lat="45.84422" lon="4.81444">
        <ele>379</ele>
        <time>2013-08-01T17:31:05Z</time>
      </trkpt>
      <trkpt lat="45.84424" lon="4.81442">
        <ele>378.4</ele>
        <time>2013-08-01T17:31:07Z</time>
      </trkpt>
      <trkpt lat="45.84429" lon="4.81441">
        <ele>378.2</ele>
        <time>2013-08-01T17:31:09Z</time>
      </trkpt>
      <trkpt lat="45.84437" lon="4.81435">
        <ele>376.8</ele>
        <time>2013-08-01T17:31:14Z</time>
      </trkpt>
      <trkpt lat="45.84443" lon="4.81425">
        <ele>375.6</ele>
        <time>2013-08-01T17:31:19Z</time>
      </trkpt>
      <trkpt lat="45.84453" lon="4.81418">
        <ele>374.2</ele>
        <time>2013-08-01T17:31:24Z</time>
      </trkpt>
      <trkpt lat="45.84455" lon="4.81418">
        <ele>373.8</ele>
        <time>2013-08-01T17:31:25Z</time>
      </trkpt>
      <trkpt lat="45.84462" lon="4.81409">
        <ele>372.4</ele>
        <time>2013-08-01T17:31:30Z</time>
      </trkpt>
      <trkpt lat="45.84464" lon="4.81405">
        <ele>370.4</ele>
        <time>2013-08-01T17:31:36Z</time>
      </trkpt>
      <trkpt lat="45.84466" lon="4.81408">
        <ele>368.8</ele>
        <time>2013-08-01T17:31:41Z</time>
      </trkpt>
      <trkpt lat="45.8447" lon="4.81407">
        <ele>367.6</ele>
        <time>2013-08-01T17:31:44Z</time>
      </trkpt>
      <trkpt lat="45.84476" lon="4.81407">
        <ele>366.2</ele>
        <time>2013-08-01T17:31:49Z</time>
      </trkpt>
      <trkpt lat="45.84477" lon="4.81407">
        <ele>366</ele>
        <time>2013-08-01T17:31:50Z</time>
      </trkpt>
      <trkpt lat="45.84481" lon="4.81407">
        <ele>364.2</ele>
        <time>2013-08-01T17:31:56Z</time>
      </trkpt>
      <trkpt lat="45.84483" lon="4.81406">
        <ele>363.6</ele>
        <time>2013-08-01T17:31:58Z</time>
      </trkpt>
      <trkpt lat="45.84486" lon="4.81404">
        <ele>362.4</ele>
        <time>2013-08-01T17:32:02Z</time>
      </trkpt>
      <trkpt lat="45.8449" lon="4.81404">
        <ele>362</ele>
        <time>2013-08-01T17:32:04Z</time>
      </trkpt>
      <trkpt lat="45.84497" lon="4.81404">
        <ele>361.6</ele>
        <time>2013-08-01T17:32:07Z</time>
      </trkpt>
      <trkpt lat="45.84503" lon="4.814">
        <ele>360.4</ele>
        <time>2013-08-01T17:32:13Z</time>
      </trkpt>
      <trkpt lat="45.84505" lon="4.81399">
        <ele>360.2</ele>
        <time>2013-08-01T17:32:15Z</time>
      </trkpt>
      <trkpt lat="45.84506" lon="4.81399">
        <ele>359.6</ele>
        <time>2013-08-01T17:32:18Z</time>
      </trkpt>
      <trkpt lat="45.84509" lon="4.81398">
        <ele>359</ele>
        <time>2013-08-01T17:32:22Z</time>
      </trkpt>
      <trkpt lat="45.84509" lon="4.81398">
        <ele>358.8</ele>
        <time>2013-08-01T17:32:23Z</time>
      </trkpt>
      <trkpt lat="45.84511" lon="4.814">
        <ele>358</ele>
        <time>2013-08-01T17:32:28Z</time>
      </trkpt>
      <trkpt lat="45.84513" lon="4.814">
        <ele>357.2</ele>
        <time>2013-08-01T17:32:34Z</time>
      </trkpt>
      <trkpt lat="45.84518" lon="4.81403">
        <ele>356.6</ele>
        <time>2013-08-01T17:32:40Z</time>
      </trkpt>
      <trkpt lat="45.8452" lon="4.81404">
        <ele>356.4</ele>
        <time>2013-08-01T17:32:45Z</time>
      </trkpt>
      <trkpt lat="45.84521" lon="4.81406">
        <ele>356.2</ele>
        <time>2013-08-01T17:32:47Z</time>
      </trkpt>
      <trkpt lat="45.84523" lon="4.81408">
        <ele>355.8</ele>
        <time>2013-08-01T17:32:50Z</time>
      </trkpt>
      <trkpt lat="45.84524" lon="4.81408">
        <ele>355.8</ele>
        <time>2013-08-01T17:32:51Z</time>
      </trkpt>
      <trkpt lat="45.84525" lon="4.81409">
        <ele>355.4</ele>
        <time>2013-08-01T17:32:53Z</time>
      </trkpt>
      <trkpt lat="45.84525" lon="4.8141">
        <ele>355.2</ele>
        <time>2013-08-01T17:32:55Z</time>
      </trkpt>
      <trkpt lat="45.84526" lon="4.81412">
        <ele>354.8</ele>
        <time>2013-08-01T17:32:57Z</time>
      </trkpt>
      <trkpt lat="45.84528" lon="4.81412">
        <ele>354.6</ele>
        <time>2013-08-01T17:32:59Z</time>
      </trkpt>
      <trkpt lat="45.8453" lon="4.81412">
        <ele>354.4</ele>
        <time>2013-08-01T17:33:01Z</time>
      </trkpt>
      <trkpt lat="45.84532" lon="4.81411">
        <ele>354</ele>
        <time>2013-08-01T17:33:03Z</time>
      </trkpt>
      <trkpt lat="45.84537" lon="4.8141">
        <ele>353.2</ele>
        <time>2013-08-01T17:33:07Z</time>
      </trkpt>
      <trkpt lat="45.84542" lon="4.8141">
        <ele>352.6</ele>
        <time>2013-08-01T17:33:11Z</time>
      </trkpt>
      <trkpt lat="45.84543" lon="4.81409">
        <ele>352.2</ele>
        <time>2013-08-01T17:33:13Z</time>
      </trkpt>
      <trkpt lat="45.84546" lon="4.81412">
        <ele>350.2</ele>
        <time>2013-08-01T17:33:23Z</time>
      </trkpt>
      <trkpt lat="45.84548" lon="4.81416">
        <ele>349.6</ele>
        <time>2013-08-01T17:33:26Z</time>
      </trkpt>
      <trkpt lat="45.84549" lon="4.81417">
        <ele>349.4</ele>
        <time>2013-08-01T17:33:27Z</time>
      </trkpt>
      <trkpt lat="45.8455" lon="4.8142">
        <ele>348.2</ele>
        <time>2013-08-01T17:33:33Z</time>
      </trkpt>
      <trkpt lat="45.8455" lon="4.81421">
        <ele>348</ele>
        <time>2013-08-01T17:33:34Z</time>
      </trkpt>
      <trkpt lat="45.84551" lon="4.81428">
        <ele>347.4</ele>
        <time>2013-08-01T17:33:38Z</time>
      </trkpt>
      <trkpt lat="45.84549" lon="4.81429">
        <ele>347</ele>
        <time>2013-08-01T17:33:40Z</time>
      </trkpt>
      <trkpt lat="45.84547" lon="4.81432">
        <ele>346.4</ele>
        <time>2013-08-01T17:33:44Z</time>
      </trkpt>
      <trkpt lat="45.84546" lon="4.81436">
        <ele>343.2</ele>
        <time>2013-08-01T17:34:08Z</time>
      </trkpt>
      <trkpt lat="45.84553" lon="4.81429">
        <ele>341.4</ele>
        <time>2013-08-01T17:34:26Z</time>
      </trkpt>
      <trkpt lat="45.84559" lon="4.81426">
        <ele>341.2</ele>
        <time>2013-08-01T17:34:31Z</time>
      </trkpt>
      <trkpt lat="45.8456" lon="4.81425">
        <ele>341</ele>
        <time>2013-08-01T17:34:33Z</time>
      </trkpt>
      <trkpt lat="45.84561" lon="4.81424">
        <ele>341</ele>
        <time>2013-08-01T17:34:34Z</time>
      </trkpt>
      <trkpt lat="45.84564" lon="4.81421">
        <ele>340.4</ele>
        <time>2013-08-01T17:34:40Z</time>
      </trkpt>
      <trkpt lat="45.84565" lon="4.8142">
        <ele>340.2</ele>
        <time>2013-08-01T17:34:41Z</time>
      </trkpt>
      <trkpt lat="45.84564" lon="4.81418">
        <ele>340.2</ele>
        <time>2013-08-01T17:34:42Z</time>
      </trkpt>
      <trkpt lat="45.84563" lon="4.81412">
        <ele>340.2</ele>
        <time>2013-08-01T17:34:47Z</time>
      </trkpt>
      <trkpt lat="45.84567" lon="4.81408">
        <ele>343</ele>
        <time>2013-08-01T17:35:14Z</time>
      </trkpt>
      <trkpt lat="45.84568" lon="4.81413">
        <ele>343.6</ele>
        <time>2013-08-01T17:35:40Z</time>
      </trkpt>
      <trkpt lat="45.84568" lon="4.81415">
        <ele>344</ele>
        <time>2013-08-01T17:35:44Z</time>
      </trkpt>
      <trkpt lat="45.8457" lon="4.8141">
        <ele>344.6</ele>
        <time>2013-08-01T17:35:57Z</time>
      </trkpt>
      <trkpt lat="45.84571" lon="4.81409">
        <ele>344.6</ele>
        <time>2013-08-01T17:35:58Z</time>
      </trkpt>
      <trkpt lat="45.8457" lon="4.81407">
        <ele>345.2</ele>
        <time>2013-08-01T17:36:03Z</time>
      </trkpt>
      <trkpt lat="45.8457" lon="4.81406">
        <ele>345.6</ele>
        <time>2013-08-01T17:36:10Z</time>
      </trkpt>
      <trkpt lat="45.84571" lon="4.81403">
        <ele>345.6</ele>
        <time>2013-08-01T17:36:12Z</time>
      </trkpt>
      <trkpt lat="45.84569" lon="4.81401">
        <ele>345.8</ele>
        <time>2013-08-01T17:36:20Z</time>
      </trkpt>
      <trkpt lat="45.84569" lon="4.81398">
        <ele>346.2</ele>
        <time>2013-08-01T17:36:25Z</time>
      </trkpt>
      <trkpt lat="45.8457" lon="4.81398">
        <ele>346.4</ele>
        <time>2013-08-01T17:36:26Z</time>
      </trkpt>
      <trkpt lat="45.84569" lon="4.81399">
        <ele>348</ele>
        <time>2013-08-01T17:36:33Z</time>
      </trkpt>
      <trkpt lat="45.84568" lon="4.81405">
        <ele>349.8</ele>
        <time>2013-08-01T17:36:42Z</time>
      </trkpt>
      <trkpt lat="45.84568" lon="4.81408">
        <ele>350</ele>
        <time>2013-08-01T17:36:44Z</time>
      </trkpt>
      <trkpt lat="45.84568" lon="4.81409">
        <ele>350.2</ele>
        <time>2013-08-01T17:36:46Z</time>
      </trkpt>
      <trkpt lat="45.84569" lon="4.81412">
        <ele>350.6</ele>
        <time>2013-08-01T17:36:49Z</time>
      </trkpt>
      <trkpt lat="45.84565" lon="4.81418">
        <ele>350.8</ele>
        <time>2013-08-01T17:36:53Z</time>
      </trkpt>
      <trkpt lat="45.84565" lon="4.81419">
        <ele>350.8</ele>
        <time>2013-08-01T17:36:54Z</time>
      </trkpt>
      <trkpt lat="45.84561" lon="4.8142">
        <ele>350.6</ele>
        <time>2013-08-01T17:36:59Z</time>
      </trkpt>
      <trkpt lat="45.84561" lon="4.81419">
        <ele>350.6</ele>
        <time>2013-08-01T17:37:00Z</time>
      </trkpt>
      <trkpt lat="45.84561" lon="4.81418">
        <ele>350.6</ele>
        <time>2013-08-01T17:37:01Z</time>
      </trkpt>
      <trkpt lat="45.84563" lon="4.81416">
        <ele>350.4</ele>
        <time>2013-08-01T17:37:06Z</time>
      </trkpt>
      <trkpt lat="45.84563" lon="4.81413">
        <ele>350</ele>
        <time>2013-08-01T17:37:11Z</time>
      </trkpt>
      <trkpt lat="45.84562" lon="4.81417">
        <ele>349</ele>
        <time>2013-08-01T17:37:28Z</time>
      </trkpt>
      <trkpt lat="45.84561" lon="4.81423">
        <ele>348.2</ele>
        <time>2013-08-01T17:37:42Z</time>
      </trkpt>
      <trkpt lat="45.84557" lon="4.81429">
        <ele>348</ele>
        <time>2013-08-01T17:37:47Z</time>
      </trkpt>
      <trkpt lat="45.84556" lon="4.81429">
        <ele>348</ele>
        <time>2013-08-01T17:37:48Z</time>
      </trkpt>
      <trkpt lat="45.84554" lon="4.81432">
        <ele>347.8</ele>
        <time>2013-08-01T17:37:50Z</time>
      </trkpt>
      <trkpt lat="45.84553" lon="4.81433">
        <ele>347.6</ele>
        <time>2013-08-01T17:37:52Z</time>
      </trkpt>
      <trkpt lat="45.84549" lon="4.81437">
        <ele>347.4</ele>
        <time>2013-08-01T17:37:57Z</time>
      </trkpt>
      <trkpt lat="45.84549" lon="4.81439">
        <ele>346.8</ele>
        <time>2013-08-01T17:38:02Z</time>
      </trkpt>
      <trkpt lat="45.84551" lon="4.81444">
        <ele>346.2</ele>
        <time>2013-08-01T17:38:08Z</time>
      </trkpt>
      <trkpt lat="45.8455" lon="4.81448">
        <ele>345.6</ele>
        <time>2013-08-01T17:38:14Z</time>
      </trkpt>
      <trkpt lat="45.8455" lon="4.8145">
        <ele>345.6</ele>
        <time>2013-08-01T17:38:16Z</time>
      </trkpt>
      <trkpt lat="45.84549" lon="4.81452">
        <ele>345.4</ele>
        <time>2013-08-01T17:38:18Z</time>
      </trkpt>
      <trkpt lat="45.84549" lon="4.81453">
        <ele>345</ele>
        <time>2013-08-01T17:38:23Z</time>
      </trkpt>
      <trkpt lat="45.8455" lon="4.81456">
        <ele>344.8</ele>
        <time>2013-08-01T17:38:26Z</time>
      </trkpt>
      <trkpt lat="45.84552" lon="4.81454">
        <ele>344</ele>
        <time>2013-08-01T17:38:32Z</time>
      </trkpt>
      <trkpt lat="45.84551" lon="4.8145">
        <ele>342.2</ele>
        <time>2013-08-01T17:38:44Z</time>
      </trkpt>
      <trkpt lat="45.84549" lon="4.81447">
        <ele>341.2</ele>
        <time>2013-08-01T17:38:50Z</time>
      </trkpt>
      <trkpt lat="45.84547" lon="4.81445">
        <ele>340</ele>
        <time>2013-08-01T17:38:57Z</time>
      </trkpt>
      <trkpt lat="45.8455" lon="4.81444">
        <ele>338</ele>
        <time>2013-08-01T17:39:15Z</time>
      </trkpt>
      <trkpt lat="45.84549" lon="4.81448">
        <ele>337.6</ele>
        <time>2013-08-01T17:39:22Z</time>
      </trkpt>
      <trkpt lat="45.84548" lon="4.81448">
        <ele>336.8</ele>
        <time>2013-08-01T17:39:33Z</time>
      </trkpt>
      <trkpt lat="45.84547" lon="4.81449">
        <ele>336.4</ele>
        <time>2013-08-01T17:39:37Z</time>
      </trkpt>
      <trkpt lat="45.84547" lon="4.81451">
        <ele>336</ele>
        <time>2013-08-01T17:39:43Z</time>
      </trkpt>
      <trkpt lat="45.84546" lon="4.81452">
        <ele>335.8</ele>
        <time>2013-08-01T17:39:48Z</time>
      </trkpt>
      <trkpt lat="45.84546" lon="4.81454">
        <ele>335.2</ele>
        <time>2013-08-01T17:39:55Z</time>
      </trkpt>
      <trkpt lat="45.84545" lon="4.81458">
        <ele>334.8</ele>
        <time>2013-08-01T17:40:00Z</time>
      </trkpt>
      <trkpt lat="45.84543" lon="4.81455">
        <ele>333.2</ele>
        <time>2013-08-01T17:40:17Z</time>
      </trkpt>
      <trkpt lat="45.84543" lon="4.81452">
        <ele>331.4</ele>
        <time>2013-08-01T17:40:33Z</time>
      </trkpt>
      <trkpt lat="45.84542" lon="4.81456">
        <ele>331.2</ele>
        <time>2013-08-01T17:40:37Z</time>
      </trkpt>
      <trkpt lat="45.8454" lon="4.81458">
        <ele>330.4</ele>
        <time>2013-08-01T17:40:44Z</time>
      </trkpt>
      <trkpt lat="45.8454" lon="4.8146">
        <ele>330.2</ele>
        <time>2013-08-01T17:40:46Z</time>
      </trkpt>
      <trkpt lat="45.84537" lon="4.81466">
        <ele>329.6</ele>
        <time>2013-08-01T17:40:55Z</time>
      </trkpt>
      <trkpt lat="45.84537" lon="4.8147">
        <ele>329.2</ele>
        <time>2013-08-01T17:40:59Z</time>
      </trkpt>
      <trkpt lat="45.84535" lon="4.81476">
        <ele>328.8</ele>
        <time>2013-08-01T17:41:05Z</time>
      </trkpt>
      <trkpt lat="45.84533" lon="4.81478">
        <ele>328.4</ele>
        <time>2013-08-01T17:41:09Z</time>
      </trkpt>
      <trkpt lat="45.84535" lon="4.81483">
        <ele>328.2</ele>
        <time>2013-08-01T17:41:15Z</time>
      </trkpt>
      <trkpt lat="45.84534" lon="4.81484">
        <ele>327.6</ele>
        <time>2013-08-01T17:41:22Z</time>
      </trkpt>
      <trkpt lat="45.84533" lon="4.81481">
        <ele>326.4</ele>
        <time>2013-08-01T17:41:33Z</time>
      </trkpt>
      <trkpt lat="45.84532" lon="4.81481">
        <ele>326.2</ele>
        <time>2013-08-01T17:41:35Z</time>
      </trkpt>
      <trkpt lat="45.84528" lon="4.81484">
        <ele>326</ele>
        <time>2013-08-01T17:41:41Z</time>
      </trkpt>
      <trkpt lat="45.84523" lon="4.81484">
        <ele>325.8</ele>
        <time>2013-08-01T17:41:47Z</time>
      </trkpt>
      <trkpt lat="45.84522" lon="4.81482">
        <ele>326</ele>
        <time>2013-08-01T17:41:52Z</time>
      </trkpt>
      <trkpt lat="45.84515" lon="4.81482">
        <ele>326.2</ele>
        <time>2013-08-01T17:42:02Z</time>
      </trkpt>
      <trkpt lat="45.84514" lon="4.81483">
        <ele>326.4</ele>
        <time>2013-08-01T17:42:03Z</time>
      </trkpt>
      <trkpt lat="45.84511" lon="4.81486">
        <ele>326.6</ele>
        <time>2013-08-01T17:42:07Z</time>
      </trkpt>
      <trkpt lat="45.84511" lon="4.81485">
        <ele>326.6</ele>
        <time>2013-08-01T17:42:08Z</time>
      </trkpt>
      <trkpt lat="45.84503" lon="4.81487">
        <ele>326.2</ele>
        <time>2013-08-01T17:42:26Z</time>
      </trkpt>
      <trkpt lat="45.84501" lon="4.81491">
        <ele>325.8</ele>
        <time>2013-08-01T17:42:34Z</time>
      </trkpt>
      <trkpt lat="45.84499" lon="4.81494">
        <ele>325</ele>
        <time>2013-08-01T17:42:41Z</time>
      </trkpt>
      <trkpt lat="45.84498" lon="4.81495">
        <ele>325</ele>
        <time>2013-08-01T17:42:43Z</time>
      </trkpt>
      <trkpt lat="45.84498" lon="4.81497">
        <ele>324.8</ele>
        <time>2013-08-01T17:42:47Z</time>
      </trkpt>
      <trkpt lat="45.84497" lon="4.81499">
        <ele>324.6</ele>
        <time>2013-08-01T17:42:49Z</time>
      </trkpt>
      <trkpt lat="45.84495" lon="4.81501">
        <ele>324.4</ele>
        <time>2013-08-01T17:42:53Z</time>
      </trkpt>
      <trkpt lat="45.84495" lon="4.81504">
        <ele>324.2</ele>
        <time>2013-08-01T17:42:59Z</time>
      </trkpt>
      <trkpt lat="45.84494" lon="4.81504">
        <ele>323.8</ele>
        <time>2013-08-01T17:43:04Z</time>
      </trkpt>
      <trkpt lat="45.84493" lon="4.81507">
        <ele>323.4</ele>
        <time>2013-08-01T17:43:09Z</time>
      </trkpt>
      <trkpt lat="45.84492" lon="4.81508">
        <ele>323.2</ele>
        <time>2013-08-01T17:43:11Z</time>
      </trkpt>
      <trkpt lat="45.84491" lon="4.8151">
        <ele>323</ele>
        <time>2013-08-01T17:43:13Z</time>
      </trkpt>
      <trkpt lat="45.84489" lon="4.81505">
        <ele>321.8</ele>
        <time>2013-08-01T17:43:19Z</time>
      </trkpt>
      <trkpt lat="45.8449" lon="4.81507">
        <ele>319.8</ele>
        <time>2013-08-01T17:43:29Z</time>
      </trkpt>
      <trkpt lat="45.84491" lon="4.81508">
        <ele>319.6</ele>
        <time>2013-08-01T17:43:30Z</time>
      </trkpt>
      <trkpt lat="45.84491" lon="4.81508">
        <ele>318.8</ele>
        <time>2013-08-01T17:43:34Z</time>
      </trkpt>
      <trkpt lat="45.84491" lon="4.81508">
        <ele>317.8</ele>
        <time>2013-08-01T17:43:38Z</time>
      </trkpt>
      <trkpt lat="45.84491" lon="4.81509">
        <ele>317</ele>
        <time>2013-08-01T17:43:41Z</time>
      </trkpt>
      <trkpt lat="45.84502" lon="4.81523">
        <ele>316</ele>
        <time>2013-08-01T17:43:59Z</time>
      </trkpt>
      <trkpt lat="45.84502" lon="4.81524">
        <ele>316</ele>
        <time>2013-08-01T17:44:00Z</time>
      </trkpt>
      <trkpt lat="45.84499" lon="4.8153">
        <ele>316.2</ele>
        <time>2013-08-01T17:44:04Z</time>
      </trkpt>
      <trkpt lat="45.84497" lon="4.8154">
        <ele>316</ele>
        <time>2013-08-01T17:44:09Z</time>
      </trkpt>
      <trkpt lat="45.84495" lon="4.81547">
        <ele>315.8</ele>
        <time>2013-08-01T17:44:13Z</time>
      </trkpt>
      <trkpt lat="45.84494" lon="4.81549">
        <ele>315.6</ele>
        <time>2013-08-01T17:44:14Z</time>
      </trkpt>
      <trkpt lat="45.8449" lon="4.81556">
        <ele>315</ele>
        <time>2013-08-01T17:44:20Z</time>
      </trkpt>
      <trkpt lat="45.84489" lon="4.81558">
        <ele>314.8</ele>
        <time>2013-08-01T17:44:21Z</time>
      </trkpt>
      <trkpt lat="45.84487" lon="4.81564">
        <ele>314.2</ele>
        <time>2013-08-01T17:44:25Z</time>
      </trkpt>
      <trkpt lat="45.84486" lon="4.81565">
        <ele>314.2</ele>
        <time>2013-08-01T17:44:26Z</time>
      </trkpt>
      <trkpt lat="45.84482" lon="4.81568">
        <ele>313.6</ele>
        <time>2013-08-01T17:44:30Z</time>
      </trkpt>
      <trkpt lat="45.84478" lon="4.81569">
        <ele>313.2</ele>
        <time>2013-08-01T17:44:34Z</time>
      </trkpt>
      <trkpt lat="45.84486" lon="4.81576">
        <ele>315.2</ele>
        <time>2013-08-01T17:45:06Z</time>
      </trkpt>
      <trkpt lat="45.84489" lon="4.81572">
        <ele>315</ele>
        <time>2013-08-01T17:45:09Z</time>
      </trkpt>
      <trkpt lat="45.84489" lon="4.81575">
        <ele>314.6</ele>
        <time>2013-08-01T17:45:14Z</time>
      </trkpt>
      <trkpt lat="45.84486" lon="4.8158">
        <ele>314.2</ele>
        <time>2013-08-01T17:45:17Z</time>
      </trkpt>
      <trkpt lat="45.84486" lon="4.81581">
        <ele>314</ele>
        <time>2013-08-01T17:45:18Z</time>
      </trkpt>
      <trkpt lat="45.84482" lon="4.81588">
        <ele>313.2</ele>
        <time>2013-08-01T17:45:23Z</time>
      </trkpt>
      <trkpt lat="45.84481" lon="4.8159">
        <ele>313</ele>
        <time>2013-08-01T17:45:24Z</time>
      </trkpt>
      <trkpt lat="45.84478" lon="4.81597">
        <ele>312.2</ele>
        <time>2013-08-01T17:45:28Z</time>
      </trkpt>
      <trkpt lat="45.84475" lon="4.81599">
        <ele>311</ele>
        <time>2013-08-01T17:45:33Z</time>
      </trkpt>
      <trkpt lat="45.84475" lon="4.81598">
        <ele>310.8</ele>
        <time>2013-08-01T17:45:34Z</time>
      </trkpt>
      <trkpt lat="45.84474" lon="4.81593">
        <ele>310</ele>
        <time>2013-08-01T17:45:37Z</time>
      </trkpt>
      <trkpt lat="45.84474" lon="4.81592">
        <ele>309.8</ele>
        <time>2013-08-01T17:45:38Z</time>
      </trkpt>
      <trkpt lat="45.84474" lon="4.81589">
        <ele>308.6</ele>
        <time>2013-08-01T17:45:43Z</time>
      </trkpt>
      <trkpt lat="45.84474" lon="4.81586">
        <ele>308.2</ele>
        <time>2013-08-01T17:45:45Z</time>
      </trkpt>
      <trkpt lat="45.84474" lon="4.81582">
        <ele>307.4</ele>
        <time>2013-08-01T17:45:48Z</time>
      </trkpt>
      <trkpt lat="45.84472" lon="4.81587">
        <ele>306.4</ele>
        <time>2013-08-01T17:45:53Z</time>
      </trkpt>
      <trkpt lat="45.84471" lon="4.81588">
        <ele>306</ele>
        <time>2013-08-01T17:45:54Z</time>
      </trkpt>
      <trkpt lat="45.84469" lon="4.81589">
        <ele>304.6</ele>
        <time>2013-08-01T17:46:01Z</time>
      </trkpt>
      <trkpt lat="45.84467" lon="4.81592">
        <ele>302.4</ele>
        <time>2013-08-01T17:46:12Z</time>
      </trkpt>
      <trkpt lat="45.84468" lon="4.81593">
        <ele>301</ele>
        <time>2013-08-01T17:46:21Z</time>
      </trkpt>
      <trkpt lat="45.84469" lon="4.81592">
        <ele>299.8</ele>
        <time>2013-08-01T17:46:28Z</time>
      </trkpt>
      <trkpt lat="45.84474" lon="4.81591">
        <ele>299.4</ele>
        <time>2013-08-01T17:46:35Z</time>
      </trkpt>
      <trkpt lat="45.84477" lon="4.8159">
        <ele>299.2</ele>
        <time>2013-08-01T17:46:37Z</time>
      </trkpt>
      <trkpt lat="45.84476" lon="4.81585">
        <ele>298.8</ele>
        <time>2013-08-01T17:46:40Z</time>
      </trkpt>
      <trkpt lat="45.84476" lon="4.81577">
        <ele>298.2</ele>
        <time>2013-08-01T17:46:47Z</time>
      </trkpt>
      <trkpt lat="45.84478" lon="4.81577">
        <ele>298</ele>
        <time>2013-08-01T17:46:50Z</time>
      </trkpt>
      <trkpt lat="45.84487" lon="4.81578">
        <ele>304</ele>
        <time>2013-08-01T17:47:17Z</time>
      </trkpt>
      <trkpt lat="45.84484" lon="4.81574">
        <ele>304</ele>
        <time>2013-08-01T17:47:22Z</time>
      </trkpt>
      <trkpt lat="45.84483" lon="4.81574">
        <ele>304</ele>
        <time>2013-08-01T17:47:23Z</time>
      </trkpt>
      <trkpt lat="45.84478" lon="4.81574">
        <ele>303.8</ele>
        <time>2013-08-01T17:47:29Z</time>
      </trkpt>
      <trkpt lat="45.84475" lon="4.81577">
        <ele>303.6</ele>
        <time>2013-08-01T17:47:32Z</time>
      </trkpt>
      <trkpt lat="45.84473" lon="4.81579">
        <ele>303.6</ele>
        <time>2013-08-01T17:47:34Z</time>
      </trkpt>
      <trkpt lat="45.84471" lon="4.81583">
        <ele>303.2</ele>
        <time>2013-08-01T17:47:37Z</time>
      </trkpt>
      <trkpt lat="45.8447" lon="4.81588">
        <ele>303</ele>
        <time>2013-08-01T17:47:40Z</time>
      </trkpt>
      <trkpt lat="45.84468" lon="4.81592">
        <ele>302.6</ele>
        <time>2013-08-01T17:47:45Z</time>
      </trkpt>
      <trkpt lat="45.84467" lon="4.81593">
        <ele>302.6</ele>
        <time>2013-08-01T17:47:46Z</time>
      </trkpt>
      <trkpt lat="45.84466" lon="4.81595">
        <ele>302.4</ele>
        <time>2013-08-01T17:47:47Z</time>
      </trkpt>
      <trkpt lat="45.84464" lon="4.816">
        <ele>302</ele>
        <time>2013-08-01T17:47:51Z</time>
      </trkpt>
      <trkpt lat="45.84461" lon="4.81606">
        <ele>301.4</ele>
        <time>2013-08-01T17:47:56Z</time>
      </trkpt>
      <trkpt lat="45.84462" lon="4.81607">
        <ele>300.8</ele>
        <time>2013-08-01T17:48:02Z</time>
      </trkpt>
      <trkpt lat="45.84461" lon="4.81611">
        <ele>300.6</ele>
        <time>2013-08-01T17:48:04Z</time>
      </trkpt>
      <trkpt lat="45.84458" lon="4.81617">
        <ele>300.6</ele>
        <time>2013-08-01T17:48:07Z</time>
      </trkpt>
      <trkpt lat="45.84458" lon="4.81617">
        <ele>300.4</ele>
        <time>2013-08-01T17:48:08Z</time>
      </trkpt>
      <trkpt lat="45.84458" lon="4.81616">
        <ele>300.4</ele>
        <time>2013-08-01T17:48:09Z</time>
      </trkpt>
      <trkpt lat="45.84455" lon="4.81613">
        <ele>299.2</ele>
        <time>2013-08-01T17:48:22Z</time>
      </trkpt>
      <trkpt lat="45.84455" lon="4.81614">
        <ele>298.8</ele>
        <time>2013-08-01T17:48:26Z</time>
      </trkpt>
      <trkpt lat="45.84457" lon="4.81613">
        <ele>297.6</ele>
        <time>2013-08-01T17:48:51Z</time>
      </trkpt>
      <trkpt lat="45.84457" lon="4.81605">
        <ele>296.2</ele>
        <time>2013-08-01T17:49:03Z</time>
      </trkpt>
      <trkpt lat="45.84457" lon="4.81612">
        <ele>296.2</ele>
        <time>2013-08-01T17:49:06Z</time>
      </trkpt>
      <trkpt lat="45.84457" lon="4.81615">
        <ele>296</ele>
        <time>2013-08-01T17:49:08Z</time>
      </trkpt>
      <trkpt lat="45.84456" lon="4.81619">
        <ele>295.8</ele>
        <time>2013-08-01T17:49:11Z</time>
      </trkpt>
      <trkpt lat="45.84455" lon="4.81622">
        <ele>295.8</ele>
        <time>2013-08-01T17:49:13Z</time>
      </trkpt>
      <trkpt lat="45.8445" lon="4.8163">
        <ele>295.6</ele>
        <time>2013-08-01T17:49:18Z</time>
      </trkpt>
      <trkpt lat="45.84445" lon="4.81639">
        <ele>295.4</ele>
        <time>2013-08-01T17:49:23Z</time>
      </trkpt>
      <trkpt lat="45.84445" lon="4.8164">
        <ele>295.4</ele>
        <time>2013-08-01T17:49:24Z</time>
      </trkpt>
      <trkpt lat="45.84444" lon="4.81641">
        <ele>295.2</ele>
        <time>2013-08-01T17:49:25Z</time>
      </trkpt>
      <trkpt lat="45.84443" lon="4.81637">
        <ele>294.6</ele>
        <time>2013-08-01T17:49:32Z</time>
      </trkpt>
      <trkpt lat="45.84442" lon="4.8164">
        <ele>292.8</ele>
        <time>2013-08-01T17:49:52Z</time>
      </trkpt>
      <trkpt lat="45.84443" lon="4.8164">
        <ele>292.8</ele>
        <time>2013-08-01T17:49:54Z</time>
      </trkpt>
      <trkpt lat="45.84447" lon="4.81636">
        <ele>292.4</ele>
        <time>2013-08-01T17:49:58Z</time>
      </trkpt>
      <trkpt lat="45.84451" lon="4.81633">
        <ele>292.4</ele>
        <time>2013-08-01T17:50:05Z</time>
      </trkpt>
      <trkpt lat="45.84449" lon="4.81634">
        <ele>292.2</ele>
        <time>2013-08-01T17:50:08Z</time>
      </trkpt>
      <trkpt lat="45.84448" lon="4.81633">
        <ele>292</ele>
        <time>2013-08-01T17:50:11Z</time>
      </trkpt>
      <trkpt lat="45.84446" lon="4.81631">
        <ele>291.6</ele>
        <time>2013-08-01T17:50:19Z</time>
      </trkpt>
      <trkpt lat="45.84441" lon="4.81625">
        <ele>291.2</ele>
        <time>2013-08-01T17:50:24Z</time>
      </trkpt>
      <trkpt lat="45.84444" lon="4.81624">
        <ele>291.2</ele>
        <time>2013-08-01T17:50:28Z</time>
      </trkpt>
      <trkpt lat="45.84449" lon="4.8164">
        <ele>305.8</ele>
        <time>2013-08-01T17:51:14Z</time>
      </trkpt>
      <trkpt lat="45.84449" lon="4.81637">
        <ele>305.2</ele>
        <time>2013-08-01T17:51:24Z</time>
      </trkpt>
      <trkpt lat="45.84458" lon="4.81636">
        <ele>304.8</ele>
        <time>2013-08-01T17:51:33Z</time>
      </trkpt>
      <trkpt lat="45.84459" lon="4.81636">
        <ele>304.8</ele>
        <time>2013-08-01T17:51:35Z</time>
      </trkpt>
      <trkpt lat="45.8446" lon="4.81634">
        <ele>304.6</ele>
        <time>2013-08-01T17:51:37Z</time>
      </trkpt>
      <trkpt lat="45.84461" lon="4.81633">
        <ele>304.6</ele>
        <time>2013-08-01T17:51:38Z</time>
      </trkpt>
      <trkpt lat="45.84448" lon="4.81635">
        <ele>305.2</ele>
        <time>2013-08-01T17:52:00Z</time>
      </trkpt>
      <trkpt lat="45.84446" lon="4.81638">
        <ele>305.4</ele>
        <time>2013-08-01T17:52:06Z</time>
      </trkpt>
      <trkpt lat="45.84448" lon="4.81636">
        <ele>307</ele>
        <time>2013-08-01T17:52:19Z</time>
      </trkpt>
      <trkpt lat="45.84449" lon="4.81638">
        <ele>307</ele>
        <time>2013-08-01T17:52:25Z</time>
      </trkpt>
      <trkpt lat="45.84452" lon="4.81638">
        <ele>306.8</ele>
        <time>2013-08-01T17:52:32Z</time>
      </trkpt>
      <trkpt lat="45.84453" lon="4.81637">
        <ele>306.6</ele>
        <time>2013-08-01T17:52:33Z</time>
      </trkpt>
      <trkpt lat="45.84455" lon="4.81634">
        <ele>306.4</ele>
        <time>2013-08-01T17:52:36Z</time>
      </trkpt>
      <trkpt lat="45.84458" lon="4.8163">
        <ele>306.2</ele>
        <time>2013-08-01T17:52:39Z</time>
      </trkpt>
      <trkpt lat="45.84459" lon="4.81627">
        <ele>306.2</ele>
        <time>2013-08-01T17:52:41Z</time>
      </trkpt>
      <trkpt lat="45.8446" lon="4.81621">
        <ele>305.8</ele>
        <time>2013-08-01T17:52:45Z</time>
      </trkpt>
      <trkpt lat="45.84461" lon="4.81619">
        <ele>305.6</ele>
        <time>2013-08-01T17:52:46Z</time>
      </trkpt>
      <trkpt lat="45.84462" lon="4.81613">
        <ele>305.2</ele>
        <time>2013-08-01T17:52:50Z</time>
      </trkpt>
      <trkpt lat="45.84463" lon="4.81612">
        <ele>305.2</ele>
        <time>2013-08-01T17:52:51Z</time>
      </trkpt>
      <trkpt lat="45.84464" lon="4.81607">
        <ele>304.6</ele>
        <time>2013-08-01T17:52:56Z</time>
      </trkpt>
      <trkpt lat="45.84465" lon="4.81605">
        <ele>304.4</ele>
        <time>2013-08-01T17:52:58Z</time>
      </trkpt>
      <trkpt lat="45.84466" lon="4.81601">
        <ele>304</ele>
        <time>2013-08-01T17:53:02Z</time>
      </trkpt>
      <trkpt lat="45.84466" lon="4.81594">
        <ele>303.6</ele>
        <time>2013-08-01T17:53:07Z</time>
      </trkpt>
      <trkpt lat="45.84471" lon="4.81594">
        <ele>304</ele>
        <time>2013-08-01T17:53:08Z</time>
      </trkpt>
      <trkpt lat="45.84475" lon="4.81592">
        <ele>304.2</ele>
        <time>2013-08-01T17:53:10Z</time>
      </trkpt>
      <trkpt lat="45.84476" lon="4.81589">
        <ele>304.2</ele>
        <time>2013-08-01T17:53:11Z</time>
      </trkpt>
      <trkpt lat="45.84476" lon="4.81585">
        <ele>304.2</ele>
        <time>2013-08-01T17:53:14Z</time>
      </trkpt>
      <trkpt lat="45.84476" lon="4.81584">
        <ele>304.2</ele>
        <time>2013-08-01T17:53:15Z</time>
      </trkpt>
      <trkpt lat="45.84476" lon="4.81576">
        <ele>304.4</ele>
        <time>2013-08-01T17:53:19Z</time>
      </trkpt>
      <trkpt lat="45.84476" lon="4.81575">
        <ele>304.2</ele>
        <time>2013-08-01T17:53:20Z</time>
      </trkpt>
      <trkpt lat="45.84479" lon="4.81573">
        <ele>304.2</ele>
        <time>2013-08-01T17:53:24Z</time>
      </trkpt>
      <trkpt lat="45.84481" lon="4.81575">
        <ele>303.8</ele>
        <time>2013-08-01T17:53:28Z</time>
      </trkpt>
      <trkpt lat="45.84482" lon="4.81576">
        <ele>303.8</ele>
        <time>2013-08-01T17:53:29Z</time>
      </trkpt>
      <trkpt lat="45.84479" lon="4.81583">
        <ele>303</ele>
        <time>2013-08-01T17:53:35Z</time>
      </trkpt>
      <trkpt lat="45.84479" lon="4.81585">
        <ele>302.8</ele>
        <time>2013-08-01T17:53:36Z</time>
      </trkpt>
      <trkpt lat="45.84474" lon="4.81594">
        <ele>302</ele>
        <time>2013-08-01T17:53:41Z</time>
      </trkpt>
      <trkpt lat="45.84473" lon="4.81601">
        <ele>301.4</ele>
        <time>2013-08-01T17:53:44Z</time>
      </trkpt>
      <trkpt lat="45.84472" lon="4.81603">
        <ele>301.2</ele>
        <time>2013-08-01T17:53:45Z</time>
      </trkpt>
      <trkpt lat="45.84472" lon="4.81605">
        <ele>300.8</ele>
        <time>2013-08-01T17:53:46Z</time>
      </trkpt>
      <trkpt lat="45.84472" lon="4.81612">
        <ele>300</ele>
        <time>2013-08-01T17:53:50Z</time>
      </trkpt>
      <trkpt lat="45.84471" lon="4.81625">
        <ele>298.4</ele>
        <time>2013-08-01T17:53:56Z</time>
      </trkpt>
      <trkpt lat="45.84471" lon="4.81627">
        <ele>298.2</ele>
        <time>2013-08-01T17:53:57Z</time>
      </trkpt>
      <trkpt lat="45.84471" lon="4.81629">
        <ele>297.8</ele>
        <time>2013-08-01T17:53:58Z</time>
      </trkpt>
      <trkpt lat="45.84467" lon="4.81636">
        <ele>297</ele>
        <time>2013-08-01T17:54:01Z</time>
      </trkpt>
      <trkpt lat="45.84469" lon="4.81644">
        <ele>296.2</ele>
        <time>2013-08-01T17:54:04Z</time>
      </trkpt>
      <trkpt lat="45.84469" lon="4.81647">
        <ele>295.8</ele>
        <time>2013-08-01T17:54:05Z</time>
      </trkpt>
      <trkpt lat="45.84467" lon="4.81656">
        <ele>295.2</ele>
        <time>2013-08-01T17:54:08Z</time>
      </trkpt>
      <trkpt lat="45.84466" lon="4.81659">
        <ele>294.8</ele>
        <time>2013-08-01T17:54:09Z</time>
      </trkpt>
      <trkpt lat="45.84465" lon="4.81661">
        <ele>294.6</ele>
        <time>2013-08-01T17:54:10Z</time>
      </trkpt>
      <trkpt lat="45.8446" lon="4.81671">
        <ele>293.4</ele>
        <time>2013-08-01T17:54:16Z</time>
      </trkpt>
      <trkpt lat="45.84459" lon="4.81676">
        <ele>292.8</ele>
        <time>2013-08-01T17:54:20Z</time>
      </trkpt>
      <trkpt lat="45.84458" lon="4.8168">
        <ele>292.6</ele>
        <time>2013-08-01T17:54:22Z</time>
      </trkpt>
      <trkpt lat="45.84458" lon="4.81681">
        <ele>292.4</ele>
        <time>2013-08-01T17:54:23Z</time>
      </trkpt>
      <trkpt lat="45.84457" lon="4.81694">
        <ele>291.6</ele>
        <time>2013-08-01T17:54:30Z</time>
      </trkpt>
      <trkpt lat="45.84452" lon="4.81705">
        <ele>291</ele>
        <time>2013-08-01T17:54:36Z</time>
      </trkpt>
      <trkpt lat="45.84454" lon="4.81714">
        <ele>291</ele>
        <time>2013-08-01T17:54:40Z</time>
      </trkpt>
      <trkpt lat="45.84453" lon="4.81716">
        <ele>291</ele>
        <time>2013-08-01T17:54:41Z</time>
      </trkpt>
      <trkpt lat="45.84449" lon="4.81729">
        <ele>290.6</ele>
        <time>2013-08-01T17:54:47Z</time>
      </trkpt>
      <trkpt lat="45.84448" lon="4.81731">
        <ele>290.6</ele>
        <time>2013-08-01T17:54:48Z</time>
      </trkpt>
      <trkpt lat="45.84447" lon="4.81733">
        <ele>290.6</ele>
        <time>2013-08-01T17:54:49Z</time>
      </trkpt>
      <trkpt lat="45.84444" lon="4.8174">
        <ele>290.4</ele>
        <time>2013-08-01T17:54:52Z</time>
      </trkpt>
      <trkpt lat="45.8444" lon="4.81746">
        <ele>290.2</ele>
        <time>2013-08-01T17:54:56Z</time>
      </trkpt>
      <trkpt lat="45.84439" lon="4.81749">
        <ele>290</ele>
        <time>2013-08-01T17:54:58Z</time>
      </trkpt>
      <trkpt lat="45.84438" lon="4.81751">
        <ele>290</ele>
        <time>2013-08-01T17:55:00Z</time>
      </trkpt>
      <trkpt lat="45.84437" lon="4.81752">
        <ele>290</ele>
        <time>2013-08-01T17:55:01Z</time>
      </trkpt>
      <trkpt lat="45.84433" lon="4.81756">
        <ele>289.8</ele>
        <time>2013-08-01T17:55:05Z</time>
      </trkpt>
      <trkpt lat="45.84432" lon="4.81758">
        <ele>289.6</ele>
        <time>2013-08-01T17:55:07Z</time>
      </trkpt>
      <trkpt lat="45.84432" lon="4.81757">
        <ele>289.4</ele>
        <time>2013-08-01T17:55:11Z</time>
      </trkpt>
      <trkpt lat="45.84429" lon="4.81761">
        <ele>289.2</ele>
        <time>2013-08-01T17:55:16Z</time>
      </trkpt>
      <trkpt lat="45.84427" lon="4.81765">
        <ele>288.8</ele>
        <time>2013-08-01T17:55:24Z</time>
      </trkpt>
      <trkpt lat="45.84424" lon="4.81769">
        <ele>288.8</ele>
        <time>2013-08-01T17:55:27Z</time>
      </trkpt>
      <trkpt lat="45.84423" lon="4.81771">
        <ele>288.8</ele>
        <time>2013-08-01T17:55:29Z</time>
      </trkpt>
      <trkpt lat="45.84417" lon="4.81779">
        <ele>288.6</ele>
        <time>2013-08-01T17:55:35Z</time>
      </trkpt>
      <trkpt lat="45.84416" lon="4.8178">
        <ele>288.4</ele>
        <time>2013-08-01T17:55:36Z</time>
      </trkpt>
      <trkpt lat="45.84413" lon="4.81785">
        <ele>288.2</ele>
        <time>2013-08-01T17:55:40Z</time>
      </trkpt>
      <trkpt lat="45.84412" lon="4.81786">
        <ele>288.2</ele>
        <time>2013-08-01T17:55:41Z</time>
      </trkpt>
      <trkpt lat="45.84411" lon="4.81787">
        <ele>288</ele>
        <time>2013-08-01T17:55:43Z</time>
      </trkpt>
      <trkpt lat="45.84409" lon="4.8179">
        <ele>287.8</ele>
        <time>2013-08-01T17:55:45Z</time>
      </trkpt>
      <trkpt lat="45.84403" lon="4.81798">
        <ele>287.4</ele>
        <time>2013-08-01T17:55:50Z</time>
      </trkpt>
      <trkpt lat="45.844" lon="4.81805">
        <ele>287</ele>
        <time>2013-08-01T17:55:56Z</time>
      </trkpt>
      <trkpt lat="45.84399" lon="4.81808">
        <ele>286.8</ele>
        <time>2013-08-01T17:55:58Z</time>
      </trkpt>
      <trkpt lat="45.84395" lon="4.81814">
        <ele>286.4</ele>
        <time>2013-08-01T17:56:02Z</time>
      </trkpt>
      <trkpt lat="45.84389" lon="4.81827">
        <ele>286</ele>
        <time>2013-08-01T17:56:07Z</time>
      </trkpt>
      <trkpt lat="45.84387" lon="4.81831">
        <ele>286</ele>
        <time>2013-08-01T17:56:08Z</time>
      </trkpt>
      <trkpt lat="45.84384" lon="4.81841">
        <ele>285.4</ele>
        <time>2013-08-01T17:56:13Z</time>
      </trkpt>
      <trkpt lat="45.84381" lon="4.81851">
        <ele>285</ele>
        <time>2013-08-01T17:56:18Z</time>
      </trkpt>
      <trkpt lat="45.8438" lon="4.81854">
        <ele>284.6</ele>
        <time>2013-08-01T17:56:21Z</time>
      </trkpt>
      <trkpt lat="45.84379" lon="4.81859">
        <ele>283.8</ele>
        <time>2013-08-01T17:56:25Z</time>
      </trkpt>
      <trkpt lat="45.84379" lon="4.8186">
        <ele>283.6</ele>
        <time>2013-08-01T17:56:26Z</time>
      </trkpt>
      <trkpt lat="45.84378" lon="4.81862">
        <ele>283.4</ele>
        <time>2013-08-01T17:56:27Z</time>
      </trkpt>
      <trkpt lat="45.84382" lon="4.81871">
        <ele>283</ele>
        <time>2013-08-01T17:56:31Z</time>
      </trkpt>
      <trkpt lat="45.84384" lon="4.8188">
        <ele>282</ele>
        <time>2013-08-01T17:56:36Z</time>
      </trkpt>
      <trkpt lat="45.84384" lon="4.81882">
        <ele>281.8</ele>
        <time>2013-08-01T17:56:37Z</time>
      </trkpt>
      <trkpt lat="45.84386" lon="4.8189">
        <ele>281</ele>
        <time>2013-08-01T17:56:40Z</time>
      </trkpt>
      <trkpt lat="45.84387" lon="4.81895">
        <ele>280.4</ele>
        <time>2013-08-01T17:56:43Z</time>
      </trkpt>
      <trkpt lat="45.84389" lon="4.81903">
        <ele>279.4</ele>
        <time>2013-08-01T17:56:47Z</time>
      </trkpt>
      <trkpt lat="45.8439" lon="4.81906">
        <ele>279</ele>
        <time>2013-08-01T17:56:48Z</time>
      </trkpt>
      <trkpt lat="45.84391" lon="4.81909">
        <ele>278.8</ele>
        <time>2013-08-01T17:56:49Z</time>
      </trkpt>
      <trkpt lat="45.84393" lon="4.81925">
        <ele>277.4</ele>
        <time>2013-08-01T17:56:54Z</time>
      </trkpt>
      <trkpt lat="45.84393" lon="4.81932">
        <ele>277</ele>
        <time>2013-08-01T17:56:56Z</time>
      </trkpt>
      <trkpt lat="45.84393" lon="4.81949">
        <ele>275.6</ele>
        <time>2013-08-01T17:57:01Z</time>
      </trkpt>
      <trkpt lat="45.84391" lon="4.8196">
        <ele>274.6</ele>
        <time>2013-08-01T17:57:04Z</time>
      </trkpt>
      <trkpt lat="45.84388" lon="4.81969">
        <ele>273.8</ele>
        <time>2013-08-01T17:57:07Z</time>
      </trkpt>
      <trkpt lat="45.84381" lon="4.81983">
        <ele>272.2</ele>
        <time>2013-08-01T17:57:12Z</time>
      </trkpt>
      <trkpt lat="45.8438" lon="4.81985">
        <ele>272</ele>
        <time>2013-08-01T17:57:13Z</time>
      </trkpt>
      <trkpt lat="45.84371" lon="4.82001">
        <ele>270.6</ele>
        <time>2013-08-01T17:57:19Z</time>
      </trkpt>
      <trkpt lat="45.84374" lon="4.82013">
        <ele>270.6</ele>
        <time>2013-08-01T17:57:22Z</time>
      </trkpt>
      <trkpt lat="45.84371" lon="4.82018">
        <ele>270.6</ele>
        <time>2013-08-01T17:57:24Z</time>
      </trkpt>
      <trkpt lat="45.84359" lon="4.82028">
        <ele>270.2</ele>
        <time>2013-08-01T17:57:30Z</time>
      </trkpt>
      <trkpt lat="45.84348" lon="4.82038">
        <ele>269.8</ele>
        <time>2013-08-01T17:57:36Z</time>
      </trkpt>
      <trkpt lat="45.84344" lon="4.82045">
        <ele>269.8</ele>
        <time>2013-08-01T17:57:39Z</time>
      </trkpt>
      <trkpt lat="45.84338" lon="4.82053">
        <ele>270</ele>
        <time>2013-08-01T17:57:43Z</time>
      </trkpt>
      <trkpt lat="45.8433" lon="4.82064">
        <ele>270.6</ele>
        <time>2013-08-01T17:57:48Z</time>
      </trkpt>
      <trkpt lat="45.84323" lon="4.82071">
        <ele>270.8</ele>
        <time>2013-08-01T17:57:52Z</time>
      </trkpt>
      <trkpt lat="45.84315" lon="4.82077">
        <ele>271.4</ele>
        <time>2013-08-01T17:57:57Z</time>
      </trkpt>
      <trkpt lat="45.84314" lon="4.82078">
        <ele>271.6</ele>
        <time>2013-08-01T17:57:58Z</time>
      </trkpt>
      <trkpt lat="45.84306" lon="4.82085">
        <ele>272.2</ele>
        <time>2013-08-01T17:58:02Z</time>
      </trkpt>
      <trkpt lat="45.84297" lon="4.82093">
        <ele>272.8</ele>
        <time>2013-08-01T17:58:07Z</time>
      </trkpt>
      <trkpt lat="45.84293" lon="4.82095">
        <ele>273</ele>
        <time>2013-08-01T17:58:09Z</time>
      </trkpt>
      <trkpt lat="45.84282" lon="4.82103">
        <ele>273.8</ele>
        <time>2013-08-01T17:58:15Z</time>
      </trkpt>
      <trkpt lat="45.8428" lon="4.82104">
        <ele>274</ele>
        <time>2013-08-01T17:58:16Z</time>
      </trkpt>
      <trkpt lat="45.84271" lon="4.8211">
        <ele>274.8</ele>
        <time>2013-08-01T17:58:21Z</time>
      </trkpt>
      <trkpt lat="45.84263" lon="4.82114">
        <ele>275.6</ele>
        <time>2013-08-01T17:58:25Z</time>
      </trkpt>
      <trkpt lat="45.84256" lon="4.82117">
        <ele>276.2</ele>
        <time>2013-08-01T17:58:29Z</time>
      </trkpt>
      <trkpt lat="45.84245" lon="4.82122">
        <ele>277.2</ele>
        <time>2013-08-01T17:58:34Z</time>
      </trkpt>
      <trkpt lat="45.84232" lon="4.82126">
        <ele>278.6</ele>
        <time>2013-08-01T17:58:40Z</time>
      </trkpt>
      <trkpt lat="45.84227" lon="4.82126">
        <ele>279</ele>
        <time>2013-08-01T17:58:42Z</time>
      </trkpt>
      <trkpt lat="45.84221" lon="4.82125">
        <ele>279.6</ele>
        <time>2013-08-01T17:58:45Z</time>
      </trkpt>
      <trkpt lat="45.84209" lon="4.82122">
        <ele>280.8</ele>
        <time>2013-08-01T17:58:51Z</time>
      </trkpt>
      <trkpt lat="45.84207" lon="4.82122">
        <ele>281</ele>
        <time>2013-08-01T17:58:52Z</time>
      </trkpt>
      <trkpt lat="45.84193" lon="4.82118">
        <ele>282.6</ele>
        <time>2013-08-01T17:58:59Z</time>
      </trkpt>
      <trkpt lat="45.84191" lon="4.82117">
        <ele>282.8</ele>
        <time>2013-08-01T17:59:00Z</time>
      </trkpt>
      <trkpt lat="45.8418" lon="4.82114">
        <ele>284.2</ele>
        <time>2013-08-01T17:59:05Z</time>
      </trkpt>
      <trkpt lat="45.84172" lon="4.82112">
        <ele>285.4</ele>
        <time>2013-08-01T17:59:09Z</time>
      </trkpt>
      <trkpt lat="45.84168" lon="4.82111">
        <ele>286</ele>
        <time>2013-08-01T17:59:11Z</time>
      </trkpt>
      <trkpt lat="45.84158" lon="4.82107">
        <ele>287.4</ele>
        <time>2013-08-01T17:59:16Z</time>
      </trkpt>
      <trkpt lat="45.84154" lon="4.82106">
        <ele>288</ele>
        <time>2013-08-01T17:59:18Z</time>
      </trkpt>
      <trkpt lat="45.84147" lon="4.82106">
        <ele>289</ele>
        <time>2013-08-01T17:59:21Z</time>
      </trkpt>
      <trkpt lat="45.84139" lon="4.82102">
        <ele>290.4</ele>
        <time>2013-08-01T17:59:26Z</time>
      </trkpt>
      <trkpt lat="45.84135" lon="4.821">
        <ele>291</ele>
        <time>2013-08-01T17:59:28Z</time>
      </trkpt>
      <trkpt lat="45.84128" lon="4.82099">
        <ele>292</ele>
        <time>2013-08-01T17:59:31Z</time>
      </trkpt>
      <trkpt lat="45.84118" lon="4.82092">
        <ele>293.4</ele>
        <time>2013-08-01T17:59:37Z</time>
      </trkpt>
      <trkpt lat="45.84104" lon="4.8209">
        <ele>297</ele>
        <time>2013-08-01T17:59:44Z</time>
      </trkpt>
      <trkpt lat="45.84104" lon="4.82083">
        <ele>298.2</ele>
        <time>2013-08-01T17:59:47Z</time>
      </trkpt>
      <trkpt lat="45.84104" lon="4.8208">
        <ele>298.8</ele>
        <time>2013-08-01T17:59:49Z</time>
      </trkpt>
      <trkpt lat="45.84103" lon="4.82079">
        <ele>299.6</ele>
        <time>2013-08-01T17:59:51Z</time>
      </trkpt>
      <trkpt lat="45.84101" lon="4.82081">
        <ele>300</ele>
        <time>2013-08-01T17:59:53Z</time>
      </trkpt>
      <trkpt lat="45.84097" lon="4.82075">
        <ele>301</ele>
        <time>2013-08-01T17:59:58Z</time>
      </trkpt>
      <trkpt lat="45.84097" lon="4.82071">
        <ele>301.2</ele>
        <time>2013-08-01T18:00:00Z</time>
      </trkpt>
      <trkpt lat="45.84096" lon="4.8207">
        <ele>301.4</ele>
        <time>2013-08-01T18:00:01Z</time>
      </trkpt>
      <trkpt lat="45.84094" lon="4.82072">
        <ele>301.4</ele>
        <time>2013-08-01T18:00:04Z</time>
      </trkpt>
      <trkpt lat="45.84094" lon="4.82073">
        <ele>301.4</ele>
        <time>2013-08-01T18:00:06Z</time>
      </trkpt>
      <trkpt lat="45.84092" lon="4.82079">
        <ele>301.2</ele>
        <time>2013-08-01T18:00:10Z</time>
      </trkpt>
      <trkpt lat="45.84088" lon="4.8209">
        <ele>301</ele>
        <time>2013-08-01T18:00:16Z</time>
      </trkpt>
      <trkpt lat="45.84087" lon="4.82098">
        <ele>300.6</ele>
        <time>2013-08-01T18:00:20Z</time>
      </trkpt>
      <trkpt lat="45.84087" lon="4.82102">
        <ele>300.4</ele>
        <time>2013-08-01T18:00:22Z</time>
      </trkpt>
      <trkpt lat="45.84087" lon="4.82114">
        <ele>299.8</ele>
        <time>2013-08-01T18:00:27Z</time>
      </trkpt>
      <trkpt lat="45.84087" lon="4.82121">
        <ele>299.4</ele>
        <time>2013-08-01T18:00:30Z</time>
      </trkpt>
      <trkpt lat="45.84086" lon="4.82125">
        <ele>299.2</ele>
        <time>2013-08-01T18:00:32Z</time>
      </trkpt>
      <trkpt lat="45.84086" lon="4.8213">
        <ele>298.8</ele>
        <time>2013-08-01T18:00:34Z</time>
      </trkpt>
      <trkpt lat="45.84085" lon="4.82138">
        <ele>298.2</ele>
        <time>2013-08-01T18:00:37Z</time>
      </trkpt>
      <trkpt lat="45.84083" lon="4.82149">
        <ele>297.4</ele>
        <time>2013-08-01T18:00:41Z</time>
      </trkpt>
      <trkpt lat="45.84082" lon="4.82152">
        <ele>297.2</ele>
        <time>2013-08-01T18:00:42Z</time>
      </trkpt>
      <trkpt lat="45.84079" lon="4.82166">
        <ele>296.4</ele>
        <time>2013-08-01T18:00:46Z</time>
      </trkpt>
      <trkpt lat="45.84077" lon="4.82176">
        <ele>295.6</ele>
        <time>2013-08-01T18:00:49Z</time>
      </trkpt>
      <trkpt lat="45.84076" lon="4.82179">
        <ele>295.2</ele>
        <time>2013-08-01T18:00:50Z</time>
      </trkpt>
      <trkpt lat="45.84073" lon="4.82193">
        <ele>294.2</ele>
        <time>2013-08-01T18:00:54Z</time>
      </trkpt>
      <trkpt lat="45.84071" lon="4.82195">
        <ele>293.8</ele>
        <time>2013-08-01T18:00:55Z</time>
      </trkpt>
      <trkpt lat="45.84067" lon="4.82205">
        <ele>293</ele>
        <time>2013-08-01T18:00:58Z</time>
      </trkpt>
      <trkpt lat="45.84064" lon="4.82214">
        <ele>292.2</ele>
        <time>2013-08-01T18:01:01Z</time>
      </trkpt>
      <trkpt lat="45.84059" lon="4.82227">
        <ele>291.2</ele>
        <time>2013-08-01T18:01:05Z</time>
      </trkpt>
      <trkpt lat="45.84058" lon="4.8223">
        <ele>290.8</ele>
        <time>2013-08-01T18:01:06Z</time>
      </trkpt>
      <trkpt lat="45.84054" lon="4.82249">
        <ele>289.2</ele>
        <time>2013-08-01T18:01:12Z</time>
      </trkpt>
      <trkpt lat="45.84052" lon="4.82256">
        <ele>288.6</ele>
        <time>2013-08-01T18:01:15Z</time>
      </trkpt>
      <trkpt lat="45.84052" lon="4.82258">
        <ele>288.4</ele>
        <time>2013-08-01T18:01:16Z</time>
      </trkpt>
      <trkpt lat="45.84047" lon="4.82268">
        <ele>287.4</ele>
        <time>2013-08-01T18:01:21Z</time>
      </trkpt>
      <trkpt lat="45.84043" lon="4.82279">
        <ele>286.6</ele>
        <time>2013-08-01T18:01:25Z</time>
      </trkpt>
      <trkpt lat="45.84043" lon="4.82282">
        <ele>286.4</ele>
        <time>2013-08-01T18:01:26Z</time>
      </trkpt>
      <trkpt lat="45.84039" lon="4.82297">
        <ele>284.4</ele>
        <time>2013-08-01T18:01:33Z</time>
      </trkpt>
      <trkpt lat="45.84038" lon="4.82299">
        <ele>284.2</ele>
        <time>2013-08-01T18:01:34Z</time>
      </trkpt>
      <trkpt lat="45.84037" lon="4.82304">
        <ele>283.6</ele>
        <time>2013-08-01T18:01:36Z</time>
      </trkpt>
      <trkpt lat="45.84036" lon="4.82307">
        <ele>283.4</ele>
        <time>2013-08-01T18:01:37Z</time>
      </trkpt>
      <trkpt lat="45.84035" lon="4.82307">
        <ele>283</ele>
        <time>2013-08-01T18:01:38Z</time>
      </trkpt>
      <trkpt lat="45.84036" lon="4.82306">
        <ele>282.8</ele>
        <time>2013-08-01T18:01:39Z</time>
      </trkpt>
      <trkpt lat="45.84036" lon="4.82305">
        <ele>282.6</ele>
        <time>2013-08-01T18:01:40Z</time>
      </trkpt>
      <trkpt lat="45.84035" lon="4.82305">
        <ele>282.2</ele>
        <time>2013-08-01T18:01:41Z</time>
      </trkpt>
      <trkpt lat="45.84032" lon="4.82304">
        <ele>281.2</ele>
        <time>2013-08-01T18:01:45Z</time>
      </trkpt>
      <trkpt lat="45.84027" lon="4.82303">
        <ele>279.8</ele>
        <time>2013-08-01T18:01:51Z</time>
      </trkpt>
      <trkpt lat="45.84025" lon="4.82303">
        <ele>279.2</ele>
        <time>2013-08-01T18:01:53Z</time>
      </trkpt>
      <trkpt lat="45.84023" lon="4.823">
        <ele>278.4</ele>
        <time>2013-08-01T18:01:56Z</time>
      </trkpt>
      <trkpt lat="45.84022" lon="4.823">
        <ele>278.2</ele>
        <time>2013-08-01T18:01:57Z</time>
      </trkpt>
      <trkpt lat="45.84015" lon="4.82296">
        <ele>276.8</ele>
        <time>2013-08-01T18:02:03Z</time>
      </trkpt>
      <trkpt lat="45.84012" lon="4.82295">
        <ele>276</ele>
        <time>2013-08-01T18:02:06Z</time>
      </trkpt>
      <trkpt lat="45.84011" lon="4.82292">
        <ele>275.2</ele>
        <time>2013-08-01T18:02:09Z</time>
      </trkpt>
      <trkpt lat="45.84008" lon="4.82289">
        <ele>273.4</ele>
        <time>2013-08-01T18:02:17Z</time>
      </trkpt>
      <trkpt lat="45.84007" lon="4.82288">
        <ele>273.2</ele>
        <time>2013-08-01T18:02:18Z</time>
      </trkpt>
      <trkpt lat="45.84005" lon="4.82286">
        <ele>272.4</ele>
        <time>2013-08-01T18:02:23Z</time>
      </trkpt>
      <trkpt lat="45.84004" lon="4.82286">
        <ele>271.8</ele>
        <time>2013-08-01T18:02:29Z</time>
      </trkpt>
      <trkpt lat="45.84002" lon="4.8228">
        <ele>271</ele>
        <time>2013-08-01T18:02:35Z</time>
      </trkpt>
      <trkpt lat="45.84001" lon="4.82277">
        <ele>270.2</ele>
        <time>2013-08-01T18:02:41Z</time>
      </trkpt>
      <trkpt lat="45.83998" lon="4.82274">
        <ele>269.8</ele>
        <time>2013-08-01T18:02:46Z</time>
      </trkpt>
      <trkpt lat="45.83994" lon="4.8227">
        <ele>269.8</ele>
        <time>2013-08-01T18:02:50Z</time>
      </trkpt>
      <trkpt lat="45.83993" lon="4.8227">
        <ele>269.8</ele>
        <time>2013-08-01T18:02:51Z</time>
      </trkpt>
      <trkpt lat="45.83992" lon="4.82269">
        <ele>269.6</ele>
        <time>2013-08-01T18:02:52Z</time>
      </trkpt>
      <trkpt lat="45.83984" lon="4.82265">
        <ele>270</ele>
        <time>2013-08-01T18:02:59Z</time>
      </trkpt>
      <trkpt lat="45.83979" lon="4.82255">
        <ele>269.8</ele>
        <time>2013-08-01T18:03:06Z</time>
      </trkpt>
      <trkpt lat="45.83976" lon="4.82246">
        <ele>269.2</ele>
        <time>2013-08-01T18:03:12Z</time>
      </trkpt>
      <trkpt lat="45.83974" lon="4.82237">
        <ele>268.8</ele>
        <time>2013-08-01T18:03:17Z</time>
      </trkpt>
      <trkpt lat="45.83974" lon="4.82236">
        <ele>268.6</ele>
        <time>2013-08-01T18:03:18Z</time>
      </trkpt>
      <trkpt lat="45.83974" lon="4.82235">
        <ele>267.8</ele>
        <time>2013-08-01T18:03:22Z</time>
      </trkpt>
      <trkpt lat="45.83974" lon="4.82234">
        <ele>266.4</ele>
        <time>2013-08-01T18:03:29Z</time>
      </trkpt>
      <trkpt lat="45.83973" lon="4.82229">
        <ele>265.8</ele>
        <time>2013-08-01T18:03:32Z</time>
      </trkpt>
      <trkpt lat="45.83973" lon="4.82228">
        <ele>265.6</ele>
        <time>2013-08-01T18:03:33Z</time>
      </trkpt>
      <trkpt lat="45.83973" lon="4.82222">
        <ele>263.6</ele>
        <time>2013-08-01T18:03:44Z</time>
      </trkpt>
      <trkpt lat="45.83972" lon="4.82218">
        <ele>261.4</ele>
        <time>2013-08-01T18:03:56Z</time>
      </trkpt>
      <trkpt lat="45.8397" lon="4.82216">
        <ele>260.2</ele>
        <time>2013-08-01T18:04:03Z</time>
      </trkpt>
      <trkpt lat="45.83968" lon="4.82212">
        <ele>259.6</ele>
        <time>2013-08-01T18:04:06Z</time>
      </trkpt>
      <trkpt lat="45.83966" lon="4.82209">
        <ele>259.2</ele>
        <time>2013-08-01T18:04:08Z</time>
      </trkpt>
      <trkpt lat="45.83964" lon="4.82209">
        <ele>259</ele>
        <time>2013-08-01T18:04:09Z</time>
      </trkpt>
      <trkpt lat="45.83963" lon="4.82211">
        <ele>258.6</ele>
        <time>2013-08-01T18:04:11Z</time>
      </trkpt>
      <trkpt lat="45.83962" lon="4.82214">
        <ele>257.8</ele>
        <time>2013-08-01T18:04:15Z</time>
      </trkpt>
      <trkpt lat="45.83961" lon="4.82215">
        <ele>256.6</ele>
        <time>2013-08-01T18:04:21Z</time>
      </trkpt>
      <trkpt lat="45.8396" lon="4.82222">
        <ele>255.6</ele>
        <time>2013-08-01T18:04:26Z</time>
      </trkpt>
      <trkpt lat="45.83958" lon="4.8223">
        <ele>254.4</ele>
        <time>2013-08-01T18:04:32Z</time>
      </trkpt>
      <trkpt lat="45.83958" lon="4.82231">
        <ele>254</ele>
        <time>2013-08-01T18:04:34Z</time>
      </trkpt>
      <trkpt lat="45.83956" lon="4.82236">
        <ele>253.4</ele>
        <time>2013-08-01T18:04:37Z</time>
      </trkpt>
      <trkpt lat="45.83954" lon="4.82243">
        <ele>252.2</ele>
        <time>2013-08-01T18:04:42Z</time>
      </trkpt>
      <trkpt lat="45.83952" lon="4.82248">
        <ele>251</ele>
        <time>2013-08-01T18:04:46Z</time>
      </trkpt>
      <trkpt lat="45.83951" lon="4.8225">
        <ele>250.6</ele>
        <time>2013-08-01T18:04:48Z</time>
      </trkpt>
      <trkpt lat="45.8395" lon="4.82252">
        <ele>249.8</ele>
        <time>2013-08-01T18:04:51Z</time>
      </trkpt>
      <trkpt lat="45.8395" lon="4.82253">
        <ele>249.4</ele>
        <time>2013-08-01T18:04:52Z</time>
      </trkpt>
      <trkpt lat="45.83948" lon="4.82259">
        <ele>248.4</ele>
        <time>2013-08-01T18:04:56Z</time>
      </trkpt>
      <trkpt lat="45.83948" lon="4.82261">
        <ele>248</ele>
        <time>2013-08-01T18:04:57Z</time>
      </trkpt>
      <trkpt lat="45.83944" lon="4.8227">
        <ele>246.6</ele>
        <time>2013-08-01T18:05:02Z</time>
      </trkpt>
      <trkpt lat="45.8394" lon="4.82274">
        <ele>245.8</ele>
        <time>2013-08-01T18:05:05Z</time>
      </trkpt>
      <trkpt lat="45.83938" lon="4.82277">
        <ele>245.2</ele>
        <time>2013-08-01T18:05:07Z</time>
      </trkpt>
      <trkpt lat="45.83927" lon="4.8229">
        <ele>243</ele>
        <time>2013-08-01T18:05:14Z</time>
      </trkpt>
      <trkpt lat="45.83925" lon="4.82291">
        <ele>242.6</ele>
        <time>2013-08-01T18:05:15Z</time>
      </trkpt>
      <trkpt lat="45.83912" lon="4.823">
        <ele>240.2</ele>
        <time>2013-08-01T18:05:22Z</time>
      </trkpt>
      <trkpt lat="45.83908" lon="4.823">
        <ele>239.6</ele>
        <time>2013-08-01T18:05:24Z</time>
      </trkpt>
      <trkpt lat="45.83901" lon="4.82301">
        <ele>238.6</ele>
        <time>2013-08-01T18:05:27Z</time>
      </trkpt>
      <trkpt lat="45.83888" lon="4.823">
        <ele>236.8</ele>
        <time>2013-08-01T18:05:32Z</time>
      </trkpt>
      <trkpt lat="45.83886" lon="4.82299">
        <ele>236.6</ele>
        <time>2013-08-01T18:05:33Z</time>
      </trkpt>
      <trkpt lat="45.8387" lon="4.82294">
        <ele>234.8</ele>
        <time>2013-08-01T18:05:39Z</time>
      </trkpt>
      <trkpt lat="45.83867" lon="4.82293">
        <ele>234.4</ele>
        <time>2013-08-01T18:05:40Z</time>
      </trkpt>
      <trkpt lat="45.83856" lon="4.82292">
        <ele>233</ele>
        <time>2013-08-01T18:05:45Z</time>
      </trkpt>
      <trkpt lat="45.83854" lon="4.82295">
        <ele>232.8</ele>
        <time>2013-08-01T18:05:46Z</time>
      </trkpt>
      <trkpt lat="45.83853" lon="4.82299">
        <ele>232.4</ele>
        <time>2013-08-01T18:05:47Z</time>
      </trkpt>
      <trkpt lat="45.83852" lon="4.82311">
        <ele>231.6</ele>
        <time>2013-08-01T18:05:50Z</time>
      </trkpt>
      <trkpt lat="45.83851" lon="4.82315">
        <ele>231.2</ele>
        <time>2013-08-01T18:05:51Z</time>
      </trkpt>
      <trkpt lat="45.8385" lon="4.82326">
        <ele>230.4</ele>
        <time>2013-08-01T18:05:54Z</time>
      </trkpt>
      <trkpt lat="45.83848" lon="4.82334">
        <ele>229.8</ele>
        <time>2013-08-01T18:05:56Z</time>
      </trkpt>
      <trkpt lat="45.83844" lon="4.82353">
        <ele>228.2</ele>
        <time>2013-08-01T18:06:01Z</time>
      </trkpt>
      <trkpt lat="45.83842" lon="4.82364">
        <ele>227.6</ele>
        <time>2013-08-01T18:06:04Z</time>
      </trkpt>
      <trkpt lat="45.83841" lon="4.82381">
        <ele>226.4</ele>
        <time>2013-08-01T18:06:08Z</time>
      </trkpt>
      <trkpt lat="45.83841" lon="4.82385">
        <ele>226.2</ele>
        <time>2013-08-01T18:06:09Z</time>
      </trkpt>
      <trkpt lat="45.83839" lon="4.82404">
        <ele>225</ele>
        <time>2013-08-01T18:06:14Z</time>
      </trkpt>
      <trkpt lat="45.83838" lon="4.82409">
        <ele>224.8</ele>
        <time>2013-08-01T18:06:15Z</time>
      </trkpt>
      <trkpt lat="45.83835" lon="4.82426">
        <ele>224</ele>
        <time>2013-08-01T18:06:19Z</time>
      </trkpt>
      <trkpt lat="45.83833" lon="4.82437">
        <ele>223.2</ele>
        <time>2013-08-01T18:06:22Z</time>
      </trkpt>
      <trkpt lat="45.83833" lon="4.82441">
        <ele>223</ele>
        <time>2013-08-01T18:06:23Z</time>
      </trkpt>
      <trkpt lat="45.83831" lon="4.82455">
        <ele>222.2</ele>
        <time>2013-08-01T18:06:27Z</time>
      </trkpt>
      <trkpt lat="45.8383" lon="4.82464">
        <ele>221.6</ele>
        <time>2013-08-01T18:06:29Z</time>
      </trkpt>
      <trkpt lat="45.83826" lon="4.82476">
        <ele>221</ele>
        <time>2013-08-01T18:06:32Z</time>
      </trkpt>
    </trkseg>
  </trk>
</gpx>